AAF264 / F-HBIO 7700 Squawk Report (21st of October, 2018)

Aircraft A320 Reg No. F-HBIO Age 11 years old
Model A320 Jet engines 2 First flight 05-09-07
Registered 23-04-13 Rollout 09-07 Delivered 25-09-07
Construction No. 3242 Line No. N/A Series 214
ADSHEX 39850E Airline name Aigle Azur Owner N/A
Airfield based Paris-Orly~Essonne~F First tracked 2013-04-23 11:25:02

Flight history for F-HBIO

Route Flight No Date Playback
Provence (MRS) - Houari Boumediene (ALG) ZI707 2018-11-16 08:15:00
Houari Boumediene (ALG) - Provence (MRS) ZI708 2018-11-15 16:28:00
Blagnac (TLS) - Houari Boumediene (ALG) ZI733 2018-11-15 15:31:00
???? N/A 2018-11-15 13:10:00
Houari Boumediene (ALG) - Blagnac (TLS) ZI734 2018-11-15 11:48:00
Orly (ORY) - Houari Boumediene (ALG) ZI255 2018-11-15 10:51:00
Tegel (TXL) - Orly (ORY) ZI602 2018-11-15 07:13:00
Orly (ORY) - Tegel (TXL) ZI601 2018-11-14 19:31:00
Houari Boumediene (ALG) - Orly (ORY) ZI260 2018-11-14 14:02:00
Orly (ORY) - Houari Boumediene (ALG) ZI259 2018-11-14 10:29:00
Tegel (TXL) - Orly (ORY) ZI608 2018-11-13 11:46:00
Orly (ORY) - Tegel (TXL) ZI607 2018-11-13 10:07:00
Tegel (TXL) - Orly (ORY) ZI602 2018-11-13 07:41:00
Orly (ORY) - Tegel (TXL) ZI601 2018-11-12 17:39:00
Malpensa (MXP) - Orly (ORY) ZI648 2018-11-12 16:15:00
Orly (ORY) - Malpensa (MXP) ZI647 2018-11-12 12:30:00
Tegel (TXL) - Orly (ORY) ZI608 2018-11-12 11:23:00
Orly (ORY) - Tegel (TXL) ZI607 2018-11-12 07:30:00
Houari Boumediene (ALG) - Orly (ORY) ZI258 2018-11-11 21:04:00
Orly (ORY) - Houari Boumediene (ALG) ZI257 2018-11-11 19:32:00
Time Lat Lon Altitude Heading Speed Vertical Rate
2018-10-21 21:41:03 GMT 48.723991 2.361013 0 73 24 0
2018-10-21 21:40:54 GMT 48.723724 2.359560 0 75 19 0
2018-10-21 21:40:36 GMT 48.723392 2.357729 0 73 14 0
2018-10-21 21:40:33 GMT 48.723358 2.357536 0 73 14 0
2018-10-21 21:40:20 GMT 48.723469 2.356495 0 154 13 0
2018-10-21 21:40:08 GMT 48.724274 2.356116 0 165 18 0
2018-10-21 21:40:01 GMT 48.724728 2.355935 0 163 18 0
2018-10-21 21:39:52 GMT 48.725510 2.355599 0 163 17 0
2018-10-21 21:39:41 GMT 48.726295 2.355266 0 165 16 0
2018-10-21 21:39:30 GMT 48.727020 2.354965 0 165 15 0
2018-10-21 21:39:18 GMT 48.727776 2.354652 0 165 14 0
2018-10-21 21:39:07 GMT 48.728344 2.354399 0 165 13 0
2018-10-21 21:38:57 GMT 48.728909 2.353997 0 120 12 0
2018-10-21 21:38:47 GMT 48.729160 2.353275 0 140 11 0
2018-10-21 21:38:37 GMT 48.729637 2.352935 0 151 14 0
2018-10-21 21:38:24 GMT 48.730209 2.352176 0 120 13 0
2018-10-21 21:38:09 GMT 48.730419 2.350969 0 87 13 0
2018-10-21 21:38:06 GMT 48.730396 2.350687 0 81 16 0
2018-10-21 21:37:55 GMT 48.730244 2.349087 0 81 28 0
2018-10-21 21:37:45 GMT 48.730068 2.347153 0 81 30 0
2018-10-21 21:37:35 GMT 48.729801 2.344967 0 70 33 0
2018-10-21 21:37:21 GMT 48.728508 2.340951 0 61 80 0
2018-10-21 21:37:12 GMT 48.726601 2.335607 0 61 110 0
2018-10-21 21:37:03 GMT 48.724228 2.328820 -100 62 132 -128
2018-10-21 21:36:52 GMT 48.721012 2.319778 0 61 136 -576
2018-10-21 21:36:42 GMT 48.717911 2.311073 100 61 135 -768
2018-10-21 21:36:32 GMT 48.715099 2.303226 250 61 130 -704
2018-10-21 21:36:21 GMT 48.711868 2.294100 350 61 131 -704
2018-10-21 21:36:12 GMT 48.709145 2.286385 475 61 130 -640
2018-10-21 21:35:59 GMT 48.705505 2.276071 600 62 131 -640
2018-10-21 21:35:49 GMT 48.702621 2.267973 725 61 130 -704
2018-10-21 21:35:39 GMT 48.699738 2.259874 825 61 131 -704
2018-10-21 21:35:30 GMT 48.697224 2.252775 925 61 131 -704
2018-10-21 21:35:20 GMT 48.694199 2.244247 1,075 61 135 -832
2018-10-21 21:35:10 GMT 48.690994 2.235295 1,225 61 136 -768
2018-10-21 21:34:59 GMT 48.687973 2.226844 1,300 61 142 -640
2018-10-21 21:34:55 GMT 48.686600 2.222830 1,350 61 149 -768
2018-10-21 21:34:49 GMT 48.684563 2.217142 1,425 61 153 -896
2018-10-21 21:34:38 GMT 48.681026 2.207168 1,650 61 155 -576
2018-10-21 21:34:31 GMT 48.678360 2.199731 1,750 61 157 -1024
2018-10-21 21:34:28 GMT 48.677299 2.196832 1,800 61 157 -1024
2018-10-21 21:34:18 GMT 48.673828 2.186984 1,950 61 156 -704
2018-10-21 21:34:10 GMT 48.670944 2.178955 2,050 61 155 -576
2018-10-21 21:34:07 GMT 48.670040 2.176449 2,075 61 155 -512
2018-10-21 21:34:03 GMT 48.668976 2.173462 2,100 62 156 -576
2018-10-21 21:33:59 GMT 48.667603 2.169589 2,150 62 161 -832
2018-10-21 21:33:56 GMT 48.666313 2.165897 2,175 62 161 -832
2018-10-21 21:33:48 GMT 48.662521 2.155222 2,325 61 163 -896
2018-10-21 21:33:45 GMT 48.662521 2.155222 2,325 62 164 -896
2018-10-21 21:33:38 GMT 48.659889 2.147827 2,475 61 164 -960
2018-10-21 21:33:35 GMT 48.658813 2.144799 2,500 61 164 -960
2018-10-21 21:33:31 GMT 48.657486 2.141207 2,550 61 164 -960
2018-10-21 21:33:28 GMT 48.656113 2.137334 2,625 62 165 -1024
2018-10-21 21:33:16 GMT 48.651745 2.124915 2,775 61 166 -1088
2018-10-21 21:33:13 GMT 48.650757 2.122263 2,850 61 166 -1088
2018-10-21 21:33:05 GMT 48.647919 2.114305 2,975 61 166 -1088
2018-10-21 21:32:58 GMT 48.644852 2.105713 3,150 61 166 -1024
2018-10-21 21:32:55 GMT 48.644119 2.103671 3,175 62 168 -960
2018-10-21 21:32:52 GMT 48.642990 2.100557 3,225 62 168 -896
2018-10-21 21:32:45 GMT 48.640244 2.092823 3,325 61 170 -704
2018-10-21 21:32:42 GMT 48.639313 2.090077 3,350 61 170 -704
2018-10-21 21:32:34 GMT 48.636475 2.082198 3,425 61 174 -320
2018-10-21 21:32:31 GMT 48.635330 2.078951 3,450 61 177 -512
2018-10-21 21:32:24 GMT 48.632378 2.070634 3,525 61 182 -640
2018-10-21 21:32:21 GMT 48.631302 2.067613 3,550 61 182 -640
2018-10-21 21:32:14 GMT 48.628326 2.059162 3,625 61 182 -320
2018-10-21 21:32:11 GMT 48.627071 2.055744 3,650 61 182 -128
2018-10-21 21:32:05 GMT 48.624649 2.049095 3,650 61 181 0
2018-10-21 21:32:01 GMT 48.623108 2.044866 3,650 61 182 0
2018-10-21 21:31:53 GMT 48.619904 2.036062 3,650 60 183 0
2018-10-21 21:31:49 GMT 48.618210 2.031555 3,650 60 183 0
2018-10-21 21:31:45 GMT 48.616318 2.026544 3,650 58 184 0
2018-10-21 21:31:42 GMT 48.615200 2.023870 3,650 58 185 0
2018-10-21 21:31:33 GMT 48.610313 2.013461 3,675 46 197 -1280
2018-10-21 21:31:30 GMT 48.608459 2.010568 3,725 41 199 -1600
2018-10-21 21:31:23 GMT 48.603470 2.004210 3,900 35 203 -1536
2018-10-21 21:31:20 GMT 48.601227 2.001977 3,975 30 206 -1728
2018-10-21 21:31:14 GMT 48.596066 1.998211 4,450 11 218 -1792
2018-10-21 21:31:11 GMT 48.588619 1.995392 4,325 9 220 -2112
2018-10-21 21:31:01 GMT 48.575043 1.992540 4,750 7 223 -1856
2018-10-21 21:30:53 GMT 48.575043 1.992540 4,875 7 233 -1088
2018-10-21 21:30:49 GMT 48.569859 1.991417 4,875 8 229 -1280
2018-10-21 21:30:43 GMT 48.563992 1.990188 4,975 8 234 -1024
2018-10-21 21:30:39 GMT 48.560257 1.989370 5,025 7 238 -1088
2018-10-21 21:30:31 GMT 48.550819 1.987369 5,175 7 244 -1152
2018-10-21 21:30:27 GMT 48.546799 1.986483 5,225 8 263 -2048
2018-10-21 21:30:20 GMT 48.539085 1.984767 5,400 8 252 -1600
2018-10-21 21:30:10 GMT 48.527866 1.982309 5,700 8 256 -2368
2018-10-21 21:30:07 GMT 48.524277 1.981553 6,750 8 263 -2048
2018-10-21 21:30:00 GMT 48.515812 1.979707 6,100 8 256 -2432
2018-10-21 21:29:57 GMT 48.511688 1.978807 6,250 8 256 -2368
2018-10-21 21:29:48 GMT 48.501148 1.976527 6,575 8 258 -1920
2018-10-21 21:29:37 GMT 48.488297 1.973736 6,900 8 263 -2048
2018-10-21 21:29:30 GMT 48.479500 1.971829 7,125 8 265 -1728
2018-10-21 21:29:26 GMT 48.475033 1.970889 7,175 8 268 -1152
2018-10-21 21:29:19 GMT 48.466095 1.969018 7,450 8 270 -1152
2018-10-21 21:29:15 GMT 48.461517 1.968032 7,450 8 271 -1152
2018-10-21 21:29:09 GMT 48.453873 1.966341 7,575 8 273 -1536
2018-10-21 21:29:06 GMT 48.450684 1.965613 7,625 8 273 -1600
2018-10-21 21:29:02 GMT 48.444958 1.964384 7,675 8 273 -1664
2018-10-21 21:28:57 GMT 48.438442 1.963011 7,875 8 273 -1600
2018-10-21 21:28:52 GMT 48.432949 1.961782 8,000 8 273 -1664
2018-10-21 21:28:47 GMT 48.425858 1.960285 8,100 8 273 -1664
2018-10-21 21:28:42 GMT 48.419312 1.958876 8,300 7 273 -1600
2018-10-21 21:28:39 GMT 48.414978 1.957952 8,400 7 274 -1408
2018-10-21 21:28:32 GMT 48.408005 1.956412 8,500 8 276 -1216
2018-10-21 21:28:29 GMT 48.404297 1.955637 8,550 8 276 -1216
2018-10-21 21:28:26 GMT 48.399078 1.954510 8,625 8 278 -1280
2018-10-21 21:28:20 GMT 48.392166 1.953037 8,775 8 279 -1344
2018-10-21 21:28:17 GMT 48.387699 1.952025 8,825 8 280 -1344
2018-10-21 21:28:13 GMT 48.383240 1.951059 8,900 8 280 -1280
2018-10-21 21:28:10 GMT 48.378708 1.950073 8,975 8 282 -1472
2018-10-21 21:28:07 GMT 48.375366 1.949369 9,025 8 282 -1472
2018-10-21 21:28:02 GMT 48.368362 1.947820 9,175 8 282 -1600
2018-10-21 21:27:57 GMT 48.362183 1.946552 9,400 7 282 -1728
2018-10-21 21:27:54 GMT 48.358929 1.945809 9,350 7 282 -1600
2018-10-21 21:27:49 GMT 48.351654 1.944298 9,500 7 283 -1408
2018-10-21 21:27:45 GMT 48.347351 1.943383 9,800 8 284 -1280
2018-10-21 21:27:41 GMT 48.342133 1.942256 9,675 8 285 -1280
2018-10-21 21:27:38 GMT 48.338120 1.941400 9,725 8 285 -1280
2018-10-21 21:27:35 GMT 48.332115 1.940099 9,825 8 285 -1088
2018-10-21 21:27:31 GMT 48.327972 1.939231 9,875 8 285 -832
2018-10-21 21:27:27 GMT 48.323502 1.938242 9,950 8 286 -384
2018-10-21 21:27:23 GMT 48.317688 1.936974 9,975 8 287 -256
2018-10-21 21:27:17 GMT 48.303860 1.933955 10,000 8 288 0
2018-10-21 21:27:12 GMT 48.303162 1.933811 10,000 8 288 0
2018-10-21 21:27:05 GMT 48.294388 1.931904 10,000 8 289 -64
2018-10-21 21:27:01 GMT 48.288265 1.930630 10,000 8 289 0
2018-10-21 21:26:55 GMT 48.281387 1.929087 10,000 8 290 0
2018-10-21 21:26:50 GMT 48.274532 1.927595 10,000 8 290 0
2018-10-21 21:26:42 GMT 48.263313 1.925137 10,000 8 291 -64
2018-10-21 21:26:39 GMT 48.259186 1.924298 10,000 8 292 -64
2018-10-21 21:26:35 GMT 48.254745 1.923312 10,000 8 292 -64
2018-10-21 21:26:30 GMT 48.247532 1.921740 10,000 8 295 -64
2018-10-21 21:26:26 GMT 48.239990 1.920150 10,000 8 297 -64
2018-10-21 21:26:21 GMT 48.234787 1.919016 10,000 8 299 0
2018-10-21 21:26:15 GMT 48.219177 1.915706 10,000 8 314 0
2018-10-21 21:26:10 GMT 48.219177 1.915706 10,000 7 309 0
2018-10-21 21:26:06 GMT 48.214291 1.914657 10,000 8 313 0
2018-10-21 21:26:02 GMT 48.208660 1.913428 10,000 7 318 0
2018-10-21 21:25:54 GMT 48.196014 1.910776 10,000 8 327 0
2018-10-21 21:25:44 GMT 48.181240 1.907646 10,000 7 342 -256
2018-10-21 21:25:39 GMT 48.171745 1.905622 10,025 7 349 -512
2018-10-21 21:25:32 GMT 48.163086 1.903815 10,050 7 352 -704
2018-10-21 21:25:29 GMT 48.157333 1.902557 10,100 7 355 -960
2018-10-21 21:25:21 GMT 48.143692 1.899673 10,200 7 362 -960
2018-10-21 21:25:18 GMT 48.138153 1.898506 10,275 8 365 -1024
2018-10-21 21:25:12 GMT 48.128635 1.896480 10,425 8 374 -1024
2018-10-21 21:25:08 GMT 48.121792 1.895071 10,450 8 375 -1024
2018-10-21 21:25:01 GMT 48.109955 1.892532 10,625 8 382 -1088
2018-10-21 21:24:58 GMT 48.102722 1.890953 10,625 8 385 -1088
2018-10-21 21:24:49 GMT 48.089996 1.888206 10,775 8 388 -1088
2018-10-21 21:24:39 GMT 48.071503 1.884224 10,975 8 391 -1024
2018-10-21 21:24:36 GMT 48.065651 1.882958 11,000 8 391 -1024
2018-10-21 21:24:29 GMT 48.047104 1.879005 11,150 8 392 -1024
2018-10-21 21:24:18 GMT 48.032833 1.875916 11,325 8 391 -1024
2018-10-21 21:24:11 GMT 48.020325 1.873306 11,625 8 393 -1088
2018-10-21 21:24:06 GMT 48.012024 1.871549 11,500 8 394 -1088
2018-10-21 21:24:00 GMT 47.994240 1.867676 12,200 8 405 -2176
2018-10-21 21:23:56 GMT 47.994240 1.867676 11,675 8 393 -1216
2018-10-21 21:23:48 GMT 47.979435 1.864577 11,825 8 394 -2048
2018-10-21 21:23:45 GMT 47.955643 1.859505 12,200 8 395 -2112
2018-10-21 21:23:35 GMT 47.955643 1.859505 12,200 8 405 -2176
2018-10-21 21:23:31 GMT 47.949280 1.858131 12,375 8 397 -2112
2018-10-21 21:23:28 GMT 47.942429 1.856689 12,500 8 399 -2176
2018-10-21 21:23:24 GMT 47.935768 1.855281 12,625 8 400 -2176
2018-10-21 21:23:21 GMT 47.930191 1.854080 12,725 8 401 -2240
2018-10-21 21:23:15 GMT 47.916779 1.851267 13,075 7 409 -2240
2018-10-21 21:23:12 GMT 47.912064 1.850235 13,125 8 406 -2112
2018-10-21 21:23:08 GMT 47.905792 1.848943 13,200 7 409 -2176
2018-10-21 21:23:05 GMT 47.899364 1.847534 13,375 8 408 -2112
2018-10-21 21:23:01 GMT 47.893295 1.846252 14,600 8 419 -2752
2018-10-21 21:22:58 GMT 47.885422 1.844604 13,575 7 409 -2240
2018-10-21 21:22:53 GMT 47.877823 1.842957 13,775 8 413 -2432
2018-10-21 21:22:49 GMT 47.871094 1.841583 13,825 8 413 -2432
2018-10-21 21:22:43 GMT 47.859238 1.839043 14,100 8 416 -2880
2018-10-21 21:22:40 GMT 47.853466 1.837886 14,225 7 417 -3072
2018-10-21 21:22:33 GMT 47.839645 1.834991 14,575 8 419 -2752
2018-10-21 21:22:23 GMT 47.819530 1.830703 15,200 8 422 -3264
2018-10-21 21:22:12 GMT 47.798908 1.826266 15,625 8 423 -3392
2018-10-21 21:22:02 GMT 47.778351 1.821945 16,175 8 427 -3072
2018-10-21 21:21:53 GMT 47.762558 1.818581 16,575 8 428 -3328
2018-10-21 21:21:50 GMT 47.756081 1.817251 16,750 8 430 -3200
2018-10-21 21:21:43 GMT 47.742142 1.814255 18,475 8 442 -3392
2018-10-21 21:21:40 GMT 47.736015 1.813026 18,475 8 442 -3392
2018-10-21 21:21:32 GMT 47.719162 1.809448 17,675 8 434 -2560
2018-10-21 21:21:29 GMT 47.712879 1.808096 17,825 8 436 -2432
2018-10-21 21:21:26 GMT 47.706940 1.806839 17,925 8 438 -2432
2018-10-21 21:21:22 GMT 47.701195 1.805631 18,050 7 439 -2560
2018-10-21 21:21:19 GMT 47.677731 1.800701 18,400 8 442 -3392
2018-10-21 21:21:11 GMT 47.677731 1.800701 18,600 8 443 -3520
2018-10-21 21:21:08 GMT 47.660275 1.797039 19,150 8 444 -3328
2018-10-21 21:21:02 GMT 47.660275 1.797039 19,075 7 446 -2944
2018-10-21 21:20:59 GMT 47.653385 1.795631 19,225 7 448 -2880
2018-10-21 21:20:51 GMT 47.631645 1.791124 19,725 8 451 -3008
2018-10-21 21:20:48 GMT 47.631645 1.791124 19,725 8 451 -3008
2018-10-21 21:20:45 GMT 47.625595 1.789810 20,200 7 456 -3136
2018-10-21 21:20:41 GMT 47.616989 1.788025 20,150 7 456 -3200
2018-10-21 21:20:38 GMT 47.610836 1.786757 20,200 7 456 -3136
2018-10-21 21:20:30 GMT 47.594357 1.783306 20,625 7 458 -3776
2018-10-21 21:20:27 GMT 47.586777 1.781708 20,850 7 458 -3968
2018-10-21 21:20:20 GMT 47.572430 1.778729 21,275 7 458 -4160
2018-10-21 21:20:17 GMT 47.565865 1.777391 21,500 8 458 -4160
2018-10-21 21:20:13 GMT 47.559395 1.776053 21,700 8 458 -3904
2018-10-21 21:20:10 GMT 47.551529 1.774433 21,950 8 459 -3584
2018-10-21 21:20:03 GMT 47.537064 1.771408 22,675 8 479 -2304
2018-10-21 21:19:59 GMT 47.529327 1.769760 22,500 7 474 -1536
2018-10-21 21:19:56 GMT 47.519852 1.767838 22,600 7 474 -1536
2018-10-21 21:19:48 GMT 47.504230 1.764573 22,750 8 479 -2368
2018-10-21 21:19:42 GMT 47.492313 1.762108 23,025 8 480 -1664
2018-10-21 21:19:38 GMT 47.483795 1.760277 23,175 8 480 -1664
2018-10-21 21:19:35 GMT 47.473598 1.758165 23,275 7 479 -1344
2018-10-21 21:19:32 GMT 47.469177 1.757249 23,400 7 478 -960
2018-10-21 21:19:27 GMT 47.458740 1.755135 23,400 7 478 -960
2018-10-21 21:19:22 GMT 47.445923 1.752457 23,675 8 479 -960
2018-10-21 21:19:18 GMT 47.438034 1.750840 23,550 8 479 -1024
2018-10-21 21:19:13 GMT 47.427063 1.748543 23,625 8 479 -1024
2018-10-21 21:19:10 GMT 47.420948 1.747249 23,675 8 480 -1024
2018-10-21 21:19:06 GMT 47.411732 1.745277 23,750 8 480 -1024
2018-10-21 21:19:03 GMT 47.406097 1.744148 23,825 7 481 -960
2018-10-21 21:19:00 GMT 47.398270 1.742500 23,950 7 481 -960
2018-10-21 21:18:53 GMT 47.382843 1.739273 23,950 7 481 -960
2018-10-21 21:18:49 GMT 47.374191 1.737488 24,000 7 481 -960
2018-10-21 21:18:42 GMT 47.359501 1.734502 24,175 7 482 -896
2018-10-21 21:18:36 GMT 47.346558 1.731826 24,200 7 482 -960
2018-10-21 21:18:33 GMT 47.340775 1.730621 24,275 7 483 -960
2018-10-21 21:18:29 GMT 47.323841 1.727107 24,300 7 483 -960
2018-10-21 21:18:26 GMT 47.323841 1.727107 24,350 8 484 -1024
2018-10-21 21:18:21 GMT 47.312668 1.724716 24,400 8 484 -1024
2018-10-21 21:18:15 GMT 47.298752 1.721825 24,550 8 486 -1024
2018-10-21 21:18:11 GMT 47.289021 1.719853 24,700 8 486 -1024
2018-10-21 21:18:04 GMT 47.275288 1.716966 24,725 8 486 -1088
2018-10-21 21:18:01 GMT 47.269272 1.715721 24,775 8 485 -1088
2018-10-21 21:17:57 GMT 47.259201 1.713661 24,850 7 485 -1152
2018-10-21 21:17:54 GMT 47.252991 1.712388 24,900 7 485 -1152
2018-10-21 21:17:51 GMT 47.245926 1.710915 25,000 7 484 -1088
2018-10-21 21:17:48 GMT 47.240467 1.709783 25,000 7 484 -1088
2018-10-21 21:17:43 GMT 47.229294 1.707458 25,100 7 481 -896
2018-10-21 21:17:40 GMT 47.222683 1.706120 25,150 7 479 -896
2018-10-21 21:17:37 GMT 47.216125 1.704803 25,200 7 478 -960
2018-10-21 21:17:33 GMT 47.206558 1.702812 25,250 7 478 -1024
2018-10-21 21:17:30 GMT 47.188751 1.699173 25,350 7 478 -960
2018-10-21 21:17:26 GMT 47.188751 1.699173 25,375 7 479 -896
2018-10-21 21:17:23 GMT 47.184174 1.698212 25,625 7 482 -960
2018-10-21 21:17:17 GMT 47.171173 1.695534 25,500 7 479 -896
2018-10-21 21:17:11 GMT 47.157623 1.692787 25,625 7 482 -960
2018-10-21 21:17:07 GMT 47.148697 1.690933 25,650 7 480 -896
2018-10-21 21:17:01 GMT 47.134651 1.688021 25,725 7 482 -960
2018-10-21 21:16:56 GMT 47.114365 1.683861 25,825 7 484 -832
2018-10-21 21:16:51 GMT 47.114365 1.683861 26,000 7 487 128
2018-10-21 21:16:46 GMT 47.102005 1.681320 25,950 7 485 -512
2018-10-21 21:16:39 GMT 47.087814 1.678368 26,000 7 485 128
2018-10-21 21:16:35 GMT 47.078476 1.676445 26,000 7 486 128
2018-10-21 21:16:31 GMT 47.067898 1.674288 25,975 7 487 128
2018-10-21 21:16:25 GMT 47.057377 1.672105 25,975 7 487 0
2018-10-21 21:16:20 GMT 47.044479 1.669499 25,975 7 487 0
2018-10-21 21:16:14 GMT 47.031353 1.666823 25,975 7 487 0
2018-10-21 21:16:10 GMT 47.021027 1.664703 25,975 7 487 0
2018-10-21 21:16:07 GMT 47.015167 1.663536 25,975 7 487 0
2018-10-21 21:16:04 GMT 47.010220 1.662527 25,975 7 487 0
2018-10-21 21:15:59 GMT 46.997772 1.659966 25,975 7 487 0
2018-10-21 21:15:56 GMT 46.991692 1.658724 25,975 7 487 0
2018-10-21 21:15:53 GMT 46.985550 1.657494 25,975 7 487 0
2018-10-21 21:15:48 GMT 46.973583 1.654992 25,975 7 487 0
2018-10-21 21:15:42 GMT 46.959137 1.652069 26,000 7 487 -64
2018-10-21 21:15:38 GMT 46.950165 1.650215 26,000 7 487 -64
2018-10-21 21:15:32 GMT 46.937737 1.647738 26,000 7 487 -64
2018-10-21 21:15:27 GMT 46.925632 1.645273 26,000 7 487 -64
2018-10-21 21:15:22 GMT 46.914646 1.643019 26,000 7 487 0
2018-10-21 21:15:17 GMT 46.904343 1.640945 26,000 7 487 0
2018-10-21 21:15:10 GMT 46.889183 1.637878 26,000 7 487 0
2018-10-21 21:15:06 GMT 46.877197 1.635452 26,000 7 488 0
2018-10-21 21:15:00 GMT 46.865768 1.633186 26,000 7 488 0
2018-10-21 21:14:57 GMT 46.859390 1.631872 26,000 7 488 0
2018-10-21 21:14:49 GMT 46.842407 1.628455 26,000 7 488 0
2018-10-21 21:14:44 GMT 46.830154 1.625977 26,000 7 488 0
2018-10-21 21:14:39 GMT 46.818375 1.623565 26,000 7 488 0
2018-10-21 21:14:34 GMT 46.805420 1.620952 26,000 7 488 0
2018-10-21 21:14:29 GMT 46.796082 1.619077 26,000 7 488 0
2018-10-21 21:14:26 GMT 46.788345 1.617469 26,000 7 488 64
2018-10-21 21:14:19 GMT 46.774063 1.614588 26,000 7 488 0
2018-10-21 21:14:15 GMT 46.764862 1.612713 26,000 7 489 0
2018-10-21 21:14:11 GMT 46.756348 1.610971 26,000 7 489 0
2018-10-21 21:14:08 GMT 46.749901 1.609634 26,000 7 489 -64
2018-10-21 21:14:05 GMT 46.742031 1.608055 26,000 7 489 -64
2018-10-21 21:14:00 GMT 46.732674 1.606133 26,000 7 489 0
2018-10-21 21:13:56 GMT 46.723038 1.604210 26,000 7 488 0
2018-10-21 21:13:53 GMT 46.717117 1.602999 26,000 7 487 0
2018-10-21 21:13:47 GMT 46.703339 1.600185 26,000 7 487 0
2018-10-21 21:13:44 GMT 46.695107 1.598511 26,000 7 487 0
2018-10-21 21:13:39 GMT 46.685165 1.596501 26,000 7 487 -64
2018-10-21 21:13:36 GMT 46.671890 1.593821 26,000 7 487 -64
2018-10-21 21:13:33 GMT 46.671890 1.593821 26,000 7 487 -64
2018-10-21 21:13:26 GMT 46.656143 1.590614 26,000 7 487 0
2018-10-21 21:13:23 GMT 46.648090 1.589035 26,000 7 487 0
2018-10-21 21:13:18 GMT 46.627350 1.584912 26,000 7 487 64
2018-10-21 21:13:14 GMT 46.623001 1.584041 26,000 7 487 64
2018-10-21 21:13:07 GMT 46.613525 1.582165 26,000 7 488 0
2018-10-21 21:13:01 GMT 46.599976 1.579419 26,000 7 487 -64
2018-10-21 21:12:57 GMT 46.592194 1.577878 26,000 7 488 64
2018-10-21 21:12:51 GMT 46.578415 1.575131 26,000 7 487 -64
2018-10-21 21:12:47 GMT 46.568619 1.573189 26,000 7 488 64
2018-10-21 21:12:44 GMT 46.560791 1.571648 26,000 7 488 0
2018-10-21 21:12:41 GMT 46.531055 1.565620 26,000 7 484 -64
2018-10-21 21:12:30 GMT 46.531055 1.565620 26,000 7 486 -128
2018-10-21 21:12:24 GMT 46.507778 1.561020 26,025 7 482 64
2018-10-21 21:12:20 GMT 46.507778 1.561020 26,000 7 482 0
2018-10-21 21:12:14 GMT 46.496048 1.558685 26,000 7 482 64
2018-10-21 21:12:08 GMT 46.482548 1.555939 26,000 7 482 64
2018-10-21 21:12:05 GMT 46.471985 1.553829 26,000 7 482 128
2018-10-21 21:11:59 GMT 46.460995 1.551682 25,975 7 483 64
2018-10-21 21:11:47 GMT 46.435822 1.546594 26,000 7 482 64
2018-10-21 21:11:40 GMT 46.412384 1.541837 26,000 7 480 -64
2018-10-21 21:11:37 GMT 46.412384 1.541837 25,975 7 480 -64
2018-10-21 21:11:29 GMT 46.394100 1.538155 26,000 7 480 -64
2018-10-21 21:11:24 GMT 46.383904 1.536095 26,000 7 479 -64
2018-10-21 21:11:21 GMT 46.377502 1.534803 26,000 7 480 0
2018-10-21 21:11:15 GMT 46.364182 1.532124 26,000 7 479 0
2018-10-21 21:11:12 GMT 46.356400 1.530583 26,000 7 480 0
2018-10-21 21:11:04 GMT 46.340519 1.527374 26,000 7 480 0
2018-10-21 21:10:58 GMT 46.326691 1.524628 26,000 7 480 64
2018-10-21 21:10:53 GMT 46.315567 1.522410 26,000 7 480 64
2018-10-21 21:10:48 GMT 46.305653 1.520370 26,000 9 481 0
2018-10-21 21:10:42 GMT 46.292057 1.517349 26,000 9 481 0
2018-10-21 21:10:37 GMT 46.281876 1.514773 26,000 10 481 0
2018-10-21 21:10:33 GMT 46.272675 1.512295 26,000 11 481 0
2018-10-21 21:10:29 GMT 46.263611 1.509548 26,000 12 480 0
2018-10-21 21:10:26 GMT 46.257191 1.507530 26,000 13 479 0
2018-10-21 21:10:23 GMT 46.250427 1.505328 26,000 13 480 0
2018-10-21 21:10:20 GMT 46.244156 1.503136 26,000 13 480 0
2018-10-21 21:10:16 GMT 46.233536 1.499366 26,000 13 480 0
2018-10-21 21:10:09 GMT 46.220169 1.494610 26,000 13 480 0
2018-10-21 21:10:05 GMT 46.212872 1.492081 26,000 13 479 0
2018-10-21 21:09:59 GMT 46.198837 1.487040 26,000 13 480 0
2018-10-21 21:09:54 GMT 46.186615 1.482752 26,000 13 480 0
2018-10-21 21:09:48 GMT 46.174606 1.478485 26,000 13 480 0
2018-10-21 21:09:39 GMT 46.155304 1.471632 26,000 13 480 0
2018-10-21 21:09:36 GMT 46.146164 1.468391 26,000 13 480 0
2018-10-21 21:09:31 GMT 46.139557 1.466072 26,000 13 481 0
2018-10-21 21:09:27 GMT 46.129257 1.462454 26,000 13 481 0
2018-10-21 21:09:22 GMT 46.119675 1.459053 26,000 13 481 0
2018-10-21 21:09:14 GMT 46.102497 1.453011 26,000 11 482 0
2018-10-21 21:09:04 GMT 46.080666 1.445595 26,000 11 482 0
2018-10-21 21:08:53 GMT 46.056610 1.439276 26,000 8 482 64
2018-10-21 21:08:50 GMT 46.049706 1.437836 26,000 7 482 0
2018-10-21 21:08:45 GMT 46.030575 1.434746 26,000 4 482 64
2018-10-21 21:08:42 GMT 46.030575 1.434746 26,000 3 481 0
2018-10-21 21:08:35 GMT 46.014839 1.433029 26,000 2 482 -64
2018-10-21 21:08:28 GMT 46.001015 1.432137 26,000 2 482 -64
2018-10-21 21:08:22 GMT 45.987282 1.431313 26,000 2 480 0
2018-10-21 21:08:19 GMT 45.979385 1.430835 26,000 2 481 0
2018-10-21 21:08:13 GMT 45.967667 1.430165 26,000 2 480 0
2018-10-21 21:08:08 GMT 45.954834 1.429390 26,000 2 480 0
2018-10-21 21:08:02 GMT 45.943150 1.428703 26,000 2 480 64
2018-10-21 21:07:57 GMT 45.930496 1.427955 26,000 2 480 64
2018-10-21 21:07:50 GMT 45.916946 1.427151 26,000 2 480 -64
2018-10-21 21:07:47 GMT 45.908478 1.426615 26,000 2 481 -128
2018-10-21 21:07:40 GMT 45.892872 1.425682 26,025 2 480 -64
2018-10-21 21:07:36 GMT 45.884911 1.425201 26,025 2 479 64
2018-10-21 21:07:30 GMT 45.872204 1.424446 26,000 2 480 0
2018-10-21 21:07:26 GMT 45.861729 1.423828 26,000 2 480 0
2018-10-21 21:07:20 GMT 45.848602 1.423073 26,000 2 481 64
2018-10-21 21:07:13 GMT 45.833542 1.422194 26,000 2 482 -64
2018-10-21 21:07:09 GMT 45.824341 1.421658 26,000 2 482 -64
2018-10-21 21:06:56 GMT 45.795578 1.419914 26,000 2 480 0
2018-10-21 21:06:47 GMT 45.775955 1.418777 26,000 2 480 -64
2018-10-21 21:06:40 GMT 45.760666 1.417854 26,000 2 480 -64
2018-10-21 21:06:35 GMT 45.749817 1.417169 26,025 2 481 0
2018-10-21 21:06:28 GMT 45.734070 1.416231 26,025 2 481 64
2018-10-21 21:06:21 GMT 45.718597 1.415294 26,000 2 482 64
2018-10-21 21:06:17 GMT 45.709671 1.414758 26,000 2 483 64
2018-10-21 21:06:10 GMT 45.693768 1.413803 26,000 2 487 0
2018-10-21 21:06:00 GMT 45.671051 1.412430 26,000 2 487 0
2018-10-21 21:05:52 GMT 45.652710 1.411400 26,000 2 487 0
2018-10-21 21:05:48 GMT 45.644142 1.410851 26,000 2 488 0
2018-10-21 21:05:41 GMT 45.628006 1.409934 26,000 2 487 64
2018-10-21 21:05:37 GMT 45.619446 1.409399 26,000 2 488 64
2018-10-21 21:05:29 GMT 45.601547 1.408327 26,000 2 488 0
2018-10-21 21:05:25 GMT 45.592117 1.407791 26,000 2 488 0
2018-10-21 21:05:19 GMT 45.577835 1.406920 26,000 2 488 64
2018-10-21 21:05:15 GMT 45.568451 1.406384 26,000 2 487 64
2018-10-21 21:05:08 GMT 45.554535 1.405513 26,000 2 487 0
2018-10-21 21:05:05 GMT 45.547760 1.405111 26,000 2 487 0
2018-10-21 21:04:55 GMT 45.523087 1.403700 26,000 2 487 -64
2018-10-21 21:04:45 GMT 45.502533 1.402457 26,000 2 485 0
2018-10-21 21:04:41 GMT 45.491730 1.401803 26,000 2 484 64
2018-10-21 21:04:37 GMT 45.482655 1.401293 26,000 2 484 -64
2018-10-21 21:04:33 GMT 45.474655 1.400822 25,975 2 485 -128
2018-10-21 21:04:30 GMT 45.468876 1.400422 26,000 2 485 -64
2018-10-21 21:04:22 GMT 45.449650 1.399283 26,025 2 483 -64
2018-10-21 21:04:14 GMT 45.431820 1.398211 26,000 2 481 192
2018-10-21 21:04:11 GMT 45.425583 1.397814 26,000 2 481 192
2018-10-21 21:04:03 GMT 45.401466 1.396402 25,925 2 483 640
2018-10-21 21:04:00 GMT 45.401466 1.396402 25,950 2 482 576
2018-10-21 21:03:54 GMT 45.387081 1.395599 25,900 2 483 1088
2018-10-21 21:03:47 GMT 45.372162 1.394741 25,775 2 483 1408
2018-10-21 21:03:43 GMT 45.362457 1.394152 25,675 2 485 1920
2018-10-21 21:03:36 GMT 45.347839 1.393321 25,475 2 486 1984
2018-10-21 21:03:32 GMT 45.327164 1.392125 24,900 2 487 640
2018-10-21 21:03:27 GMT 45.327164 1.392125 25,225 2 489 1152
2018-10-21 21:03:21 GMT 45.313339 1.391340 24,900 2 487 640
2018-10-21 21:03:16 GMT 45.301613 1.390641 25,075 2 488 640
2018-10-21 21:03:09 GMT 45.287155 1.389836 25,000 2 487 896
2018-10-21 21:03:04 GMT 45.275402 1.389168 24,925 2 487 640
2018-10-21 21:02:59 GMT 45.263901 1.388463 24,875 2 486 768
2018-10-21 21:02:52 GMT 45.249207 1.387612 24,775 2 485 1024
2018-10-21 21:02:49 GMT 45.239651 1.387091 24,700 2 485 1344
2018-10-21 21:02:42 GMT 45.226803 1.386354 24,575 2 486 1280
2018-10-21 21:02:35 GMT 45.210068 1.385389 24,425 2 486 1280
2018-10-21 21:02:28 GMT 45.192169 1.384343 24,275 2 486 960
2018-10-21 21:02:22 GMT 45.180668 1.383674 24,200 2 486 896
2018-10-21 21:02:14 GMT 45.162655 1.382670 24,100 2 484 768
2018-10-21 21:02:11 GMT 45.155731 1.382250 24,050 2 484 768
2018-10-21 21:02:03 GMT 45.138428 1.381269 23,950 2 483 896
2018-10-21 21:02:00 GMT 45.132568 1.380942 23,925 2 482 832
2018-10-21 21:01:54 GMT 45.116730 1.379961 23,825 2 482 832
2018-10-21 21:01:49 GMT 45.107300 1.379438 23,750 2 481 960
2018-10-21 21:01:43 GMT 45.094299 1.378653 23,650 2 481 1536
2018-10-21 21:01:38 GMT 45.082863 1.377980 23,525 2 481 1536
2018-10-21 21:01:32 GMT 45.069901 1.377215 23,375 2 482 1152
2018-10-21 21:01:27 GMT 45.058365 1.376561 23,300 2 480 320
2018-10-21 21:01:22 GMT 45.047577 1.375904 23,275 2 479 256
2018-10-21 21:01:15 GMT 45.032410 1.374991 23,225 2 477 576
2018-10-21 21:01:11 GMT 45.023483 1.374468 23,175 2 476 1024
2018-10-21 21:01:02 GMT 45.000366 1.373095 23,075 2 473 448
2018-10-21 21:00:54 GMT 44.985477 1.372286 23,000 2 471 1088
2018-10-21 21:00:50 GMT 44.975609 1.371683 22,875 2 471 1152
2018-10-21 21:00:43 GMT 44.961548 1.370871 22,800 2 470 1152
2018-10-21 21:00:37 GMT 44.947495 1.370087 22,675 2 470 960
2018-10-21 21:00:30 GMT 44.930008 1.369106 22,550 2 468 1088
2018-10-21 21:00:18 GMT 44.906338 1.367731 22,400 2 465 576
2018-10-21 21:00:08 GMT 44.885574 1.366525 22,275 2 462 576
2018-10-21 20:59:58 GMT 44.862076 1.365182 22,200 2 457 64
2018-10-21 20:59:49 GMT 44.844315 1.364136 22,150 2 453 1088
2018-10-21 20:59:46 GMT 44.838837 1.363778 22,125 2 452 1536
2018-10-21 20:59:36 GMT 44.817749 1.362573 21,900 2 452 1536
2018-10-21 20:59:26 GMT 44.794785 1.361193 21,625 2 452 1408
2018-10-21 20:59:14 GMT 44.771847 1.359893 21,350 2 452 1792
2018-10-21 20:59:05 GMT 44.751270 1.358687 21,050 2 453 2432
2018-10-21 20:58:53 GMT 44.726852 1.357335 20,550 2 458 2368
2018-10-21 20:58:42 GMT 44.704952 1.356075 20,225 2 459 1344
2018-10-21 20:58:31 GMT 44.682037 1.354784 20,000 2 458 1152
2018-10-21 20:58:20 GMT 44.658306 1.353395 19,775 2 456 1280
2018-10-21 20:58:10 GMT 44.636333 1.352189 19,575 2 454 1280
2018-10-21 20:57:59 GMT 44.613052 1.350795 19,350 2 452 1344
2018-10-21 20:57:50 GMT 44.594250 1.349711 19,075 2 450 1344
2018-10-21 20:57:38 GMT 44.569065 1.348237 18,875 2 449 1728
2018-10-21 20:57:26 GMT 44.546173 1.346872 18,550 2 448 1536
2018-10-21 20:57:16 GMT 44.523445 1.345557 18,300 2 446 1408
2018-10-21 20:57:08 GMT 44.504776 1.344552 18,100 2 444 1408
2018-10-21 20:57:01 GMT 44.493027 1.343863 17,950 2 443 1472
2018-10-21 20:56:56 GMT 44.482616 1.343280 17,850 2 442 1536
2018-10-21 20:56:52 GMT 44.474098 1.342811 17,750 2 442 1600
2018-10-21 20:56:45 GMT 44.461166 1.342032 17,575 2 441 1600
2018-10-21 20:56:40 GMT 44.450542 1.341471 17,450 2 440 1536
2018-10-21 20:56:35 GMT 44.440109 1.340855 17,325 2 438 1408
2018-10-21 20:56:30 GMT 44.430202 1.340265 17,200 2 436 1600
2018-10-21 20:56:24 GMT 44.417957 1.339595 17,050 2 435 1600
2018-10-21 20:56:13 GMT 44.395523 1.338305 16,775 2 433 1728
2018-10-21 20:56:07 GMT 44.383896 1.337651 16,600 2 433 1856
2018-10-21 20:56:03 GMT 44.373734 1.337050 16,425 2 432 2176
2018-10-21 20:55:58 GMT 44.365120 1.336581 16,275 2 432 1920
2018-10-21 20:55:51 GMT 44.350456 1.335777 16,075 2 431 1408
2018-10-21 20:55:46 GMT 44.342403 1.335308 15,975 2 429 1408
2018-10-21 20:55:41 GMT 44.330395 1.334571 15,850 2 427 1600
2018-10-21 20:55:31 GMT 44.312714 1.333596 15,575 2 427 1792
2018-10-21 20:55:27 GMT 44.304565 1.333139 15,425 2 426 2304
2018-10-21 20:55:17 GMT 44.285019 1.332027 15,125 2 425 1536
2018-10-21 20:55:07 GMT 44.263496 1.330819 14,875 2 421 1856
2018-10-21 20:54:57 GMT 44.245880 1.329869 14,575 2 420 1920
2018-10-21 20:54:50 GMT 44.232540 1.329078 14,375 2 418 1088
2018-10-21 20:54:40 GMT 44.212662 1.327939 14,175 2 413 1792
2018-10-21 20:54:34 GMT 44.200836 1.327269 14,000 2 412 1984
2018-10-21 20:54:22 GMT 44.178585 1.325945 13,625 2 408 2048
2018-10-21 20:54:11 GMT 44.157623 1.324811 13,225 2 408 2560
2018-10-21 20:53:58 GMT 44.130661 1.323278 12,675 2 407 1856
2018-10-21 20:53:48 GMT 44.113506 1.322283 12,400 2 404 1792
2018-10-21 20:53:39 GMT 44.097015 1.321361 12,150 2 401 2176
2018-10-21 20:53:30 GMT 44.080917 1.320452 11,850 2 399 2112
2018-10-21 20:53:19 GMT 44.060028 1.319317 11,475 2 396 2048
2018-10-21 20:53:07 GMT 44.039017 1.318104 11,100 2 393 1664
2018-10-21 20:52:56 GMT 44.019379 1.317051 10,850 2 386 1472
2018-10-21 20:52:46 GMT 44.000057 1.315940 10,575 2 379 1792
2018-10-21 20:52:35 GMT 43.981339 1.314910 10,275 2 374 1472
2018-10-21 20:52:23 GMT 43.961517 1.313760 10,075 2 365 832
2018-10-21 20:52:13 GMT 43.943939 1.312802 9,925 2 353 832
2018-10-21 20:52:02 GMT 43.926132 1.311754 9,775 2 339 960
2018-10-21 20:51:50 GMT 43.908535 1.310708 9,600 2 327 960
2018-10-21 20:51:40 GMT 43.893360 1.309858 9,425 2 309 1024
2018-10-21 20:51:29 GMT 43.878296 1.308970 9,250 2 301 1024
2018-10-21 20:51:19 GMT 43.863335 1.308027 9,075 2 279 1152
2018-10-21 20:51:01 GMT 43.840714 1.306734 8,700 2 267 2304
2018-10-21 20:50:46 GMT 43.820892 1.305648 7,975 2 262 3648
2018-10-21 20:50:37 GMT 43.811050 1.305074 7,500 2 265 4032
2018-10-21 20:50:26 GMT 43.797695 1.304299 6,825 2 268 3328
2018-10-21 20:50:14 GMT 43.783310 1.303515 6,225 2 267 3520
2018-10-21 20:50:03 GMT 43.769577 1.302710 5,600 2 268 3392
2018-10-21 20:49:45 GMT 43.747375 1.301624 4,900 1 260 1856
2018-10-21 20:49:40 GMT 43.740234 1.301305 4,575 2 251 1408
2018-10-21 20:49:30 GMT 43.729218 1.300637 4,375 2 242 1472
2018-10-21 20:49:17 GMT 43.714832 1.299460 4,075 3 223 512
2018-10-21 20:49:07 GMT 43.705811 1.299069 4,000 359 205 960
2018-10-21 20:48:35 GMT 43.679672 1.311780 3,500 326 165 960
2018-10-21 20:48:24 GMT 43.673260 1.318621 3,250 322 157 1600
2018-10-21 20:48:13 GMT 43.667084 1.325513 2,975 321 152 1664
2018-10-21 20:48:03 GMT 43.661160 1.332223 2,675 321 148 1856
2018-10-21 20:47:50 GMT 43.654873 1.339286 2,300 322 146 1984
2018-10-21 20:47:40 GMT 43.649567 1.345171 1,925 322 146 2752
We lost coverage of the aircraft here for a total of 104 minutes
2018-10-21 19:04:09 GMT 43.608879 1.387220 475 323 129 -704
2018-10-21 19:04:01 GMT 43.605011 1.391303 575 323 129 -704
2018-10-21 19:03:53 GMT 43.601120 1.395328 675 323 132 -640
2018-10-21 19:03:49 GMT 43.598267 1.398272 725 323 132 -640
2018-10-21 19:03:41 GMT 43.595123 1.401523 800 324 133 -704
2018-10-21 19:03:32 GMT 43.589859 1.406953 925 323 132 -640
2018-10-21 19:03:27 GMT 43.588165 1.408741 950 323 132 -640
2018-10-21 19:03:21 GMT 43.585007 1.411999 1,025 323 134 -704
2018-10-21 19:03:17 GMT 43.582993 1.414107 1,075 323 134 -704
2018-10-21 19:03:11 GMT 43.580017 1.417236 1,150 324 135 -768
2018-10-21 19:03:06 GMT 43.577782 1.419525 1,200 324 136 -768
2018-10-21 19:03:01 GMT 43.574711 1.422729 1,275 323 137 -768
2018-10-21 19:02:55 GMT 43.572144 1.425412 1,350 324 140 -704
2018-10-21 19:02:50 GMT 43.569309 1.428353 1,400 323 144 -832
2018-10-21 19:02:45 GMT 43.566833 1.430969 1,475 323 147 -960
2018-10-21 19:02:40 GMT 43.563816 1.434108 1,550 324 152 -960
2018-10-21 19:02:35 GMT 43.560837 1.437101 1,650 324 151 -704
2018-10-21 19:02:29 GMT 43.557770 1.440295 1,700 324 150 -512
2018-10-21 19:02:24 GMT 43.554974 1.443198 1,750 323 149 -704
2018-10-21 19:02:19 GMT 43.552277 1.445980 1,800 323 152 -896
2018-10-21 19:02:12 GMT 43.548176 1.450261 1,900 324 156 -960
2018-10-21 19:02:08 GMT 43.546005 1.452495 1,950 324 161 -896
2018-10-21 19:02:02 GMT 43.542126 1.456473 2,050 324 165 -1088
2018-10-21 19:01:59 GMT 43.539917 1.458754 2,125 323 170 -1280
2018-10-21 19:01:53 GMT 43.536392 1.462459 2,225 324 176 -704
2018-10-21 19:01:49 GMT 43.533554 1.465397 2,275 324 181 -896
2018-10-21 19:01:43 GMT 43.529343 1.469805 2,350 323 189 -1152
2018-10-21 19:01:38 GMT 43.526016 1.473280 2,425 323 190 -1152
2018-10-21 19:01:32 GMT 43.521732 1.477727 2,550 324 193 -1024
2018-10-21 19:01:27 GMT 43.517635 1.481912 2,650 324 196 -896
2018-10-21 19:01:20 GMT 43.513309 1.486424 2,725 324 197 -640
2018-10-21 19:01:16 GMT 43.510281 1.489563 2,750 324 202 -320
2018-10-21 19:01:10 GMT 43.506001 1.493944 2,775 324 208 -64
2018-10-21 19:01:06 GMT 43.502506 1.497541 2,775 323 214 0
2018-10-21 19:01:00 GMT 43.497986 1.502253 2,775 323 217 64
2018-10-21 19:00:56 GMT 43.494049 1.506404 2,775 323 217 0
2018-10-21 19:00:51 GMT 43.489986 1.510555 2,775 324 217 0
2018-10-21 19:00:46 GMT 43.485580 1.515091 2,775 324 218 64
2018-10-21 19:00:40 GMT 43.481232 1.519579 2,775 323 219 -64
2018-10-21 19:00:34 GMT 43.476486 1.524549 2,775 323 220 64
2018-10-21 19:00:30 GMT 43.472855 1.528313 2,775 323 221 64
2018-10-21 19:00:24 GMT 43.468338 1.533051 2,775 323 221 0
2018-10-21 19:00:18 GMT 43.464157 1.537575 2,775 322 222 64
2018-10-21 19:00:08 GMT 43.455677 1.546653 2,775 323 224 0
2018-10-21 18:59:58 GMT 43.447296 1.555808 2,800 320 226 -192
2018-10-21 18:59:54 GMT 43.443573 1.560386 2,800 316 227 -64
2018-10-21 18:59:47 GMT 43.439346 1.566510 2,800 311 228 -64
2018-10-21 18:59:43 GMT 43.436234 1.571939 2,800 306 231 64
2018-10-21 18:59:37 GMT 43.432892 1.578965 2,800 301 239 -64
2018-10-21 18:59:33 GMT 43.430740 1.584075 2,800 300 245 -64
2018-10-21 18:59:26 GMT 43.426804 1.593465 2,800 300 255 -192
2018-10-21 18:59:23 GMT 43.424393 1.599230 2,825 300 263 -512
2018-10-21 18:59:13 GMT 43.418243 1.614032 2,925 300 272 -1152
2018-10-21 18:59:05 GMT 43.413918 1.624472 3,075 300 275 -1600
2018-10-21 18:59:02 GMT 43.412018 1.629106 3,150 300 275 -1856
2018-10-21 18:58:55 GMT 43.407349 1.640604 3,400 300 275 -2112
2018-10-21 18:58:52 GMT 43.405495 1.645268 3,500 300 275 -2240
2018-10-21 18:58:42 GMT 43.399582 1.659720 3,850 300 272 -2688
2018-10-21 18:58:30 GMT 43.392086 1.678096 4,425 300 263 -2432
2018-10-21 18:58:21 GMT 43.386475 1.691192 4,725 302 256 -960
2018-10-21 18:58:10 GMT 43.378960 1.706020 4,800 310 255 64
2018-10-21 18:57:58 GMT 43.369785 1.719557 4,800 315 254 64
2018-10-21 18:57:47 GMT 43.360703 1.732455 4,775 314 251 0
2018-10-21 18:57:36 GMT 43.351959 1.746107 4,800 307 245 0
2018-10-21 18:57:25 GMT 43.346329 1.761006 4,825 285 234 64
2018-10-21 18:57:15 GMT 43.345303 1.776908 4,800 262 235 0
2018-10-21 18:57:03 GMT 43.349030 1.793007 4,800 241 252 0
2018-10-21 18:56:52 GMT 43.357590 1.807513 4,775 221 271 64
2018-10-21 18:56:41 GMT 43.369537 1.817918 4,775 207 289 64
2018-10-21 18:56:30 GMT 43.383057 1.827131 4,775 207 302 -128
2018-10-21 18:56:18 GMT 43.397003 1.836697 4,800 207 302 -128
2018-10-21 18:56:07 GMT 43.410938 1.846226 4,825 207 307 -320
2018-10-21 18:55:57 GMT 43.425018 1.856051 4,950 208 322 -1280
2018-10-21 18:55:46 GMT 43.439568 1.866629 5,225 209 333 -2240
2018-10-21 18:55:35 GMT 43.454590 1.877832 5,700 209 339 -3136
2018-10-21 18:55:24 GMT 43.469734 1.889321 6,300 209 340 -3520
2018-10-21 18:55:13 GMT 43.485443 1.901274 6,875 209 343 -3328
2018-10-21 18:55:02 GMT 43.500507 1.912537 7,375 209 350 -1664
2018-10-21 18:54:51 GMT 43.516571 1.924332 7,650 207 364 -1536
2018-10-21 18:54:40 GMT 43.532906 1.934640 7,975 198 375 -3328
2018-10-21 18:54:30 GMT 43.551014 1.939806 8,700 182 373 -5888
2018-10-21 18:54:20 GMT 43.567959 1.938564 9,625 168 362 -5504
2018-10-21 18:54:10 GMT 43.584915 1.931678 10,525 155 356 -3968
2018-10-21 18:53:59 GMT 43.599380 1.920500 11,050 143 361 -1728
2018-10-21 18:53:51 GMT 43.608974 1.909201 11,250 133 368 -1728
2018-10-21 18:53:48 GMT 43.612793 1.903381 11,350 128 372 -1792
2018-10-21 18:53:38 GMT 43.622520 1.882782 11,650 114 381 -1984
2018-10-21 18:53:27 GMT 43.628906 1.857200 12,000 101 392 -2240
2018-10-21 18:53:17 GMT 43.630463 1.831906 12,525 86 397 -4800
2018-10-21 18:53:07 GMT 43.627407 1.804701 13,400 74 397 -5120
2018-10-21 18:52:56 GMT 43.619934 1.778699 14,275 62 399 -4480
2018-10-21 18:52:45 GMT 43.609268 1.756471 15,025 49 404 -4160
2018-10-21 18:52:35 GMT 43.595798 1.737213 15,675 40 412 -3520
2018-10-21 18:52:24 GMT 43.580109 1.719426 16,200 38 426 -2304
2018-10-21 18:52:21 GMT 43.576172 1.715081 16,300 38 428 -2240
2018-10-21 18:52:13 GMT 43.562988 1.700645 16,625 38 435 -3072
2018-10-21 18:52:10 GMT 43.558975 1.696341 16,750 38 435 -3392
2018-10-21 18:52:03 GMT 43.546967 1.683527 17,225 37 434 -4032
2018-10-21 18:51:59 GMT 43.541798 1.678031 17,425 37 434 -4096
2018-10-21 18:51:52 GMT 43.530159 1.665606 17,925 37 433 -4160
2018-10-21 18:51:49 GMT 43.525131 1.660277 18,125 37 433 -4288
2018-10-21 18:51:42 GMT 43.514191 1.648538 18,600 38 433 -4288
2018-10-21 18:51:39 GMT 43.508926 1.642775 18,850 38 433 -4480
2018-10-21 18:51:31 GMT 43.496796 1.629554 19,400 38 436 -4544
2018-10-21 18:51:28 GMT 43.491848 1.624211 19,625 38 438 -4416
2018-10-21 18:51:20 GMT 43.479904 1.611286 20,125 38 444 -3904
2018-10-21 18:51:17 GMT 43.475040 1.606097 20,275 37 445 -3840
2018-10-21 18:51:10 GMT 43.462753 1.592887 20,800 38 452 -4352
2018-10-21 18:51:07 GMT 43.457199 1.586950 21,050 38 454 -4480
2018-10-21 18:51:00 GMT 43.440083 1.568495 22,050 38 457 -5696
2018-10-21 18:50:56 GMT 43.440083 1.568495 21,850 38 457 -5760
2018-10-21 18:50:50 GMT 43.422066 1.549072 23,125 38 462 -5120
2018-10-21 18:50:45 GMT 43.422066 1.549072 22,825 38 459 -4864
2018-10-21 18:50:39 GMT 43.410599 1.536745 23,400 38 462 -5824
2018-10-21 18:50:33 GMT 43.399021 1.524222 24,100 38 460 -7296
2018-10-21 18:50:29 GMT 43.393250 1.518030 24,500 38 457 -7296
2018-10-21 18:50:22 GMT 43.382450 1.506435 25,275 37 453 -7168
2018-10-21 18:50:18 GMT 43.375793 1.499307 25,750 37 451 -6976
2018-10-21 18:50:14 GMT 43.369183 1.492244 26,200 37 449 -6784
2018-10-21 18:50:11 GMT 43.365005 1.487817 26,475 37 448 -6528
2018-10-21 18:50:07 GMT 43.358597 1.480983 26,875 37 448 -5888
2018-10-21 18:50:01 GMT 43.347290 1.468847 27,525 38 448 -5312
2018-10-21 18:49:57 GMT 43.341476 1.462651 27,825 38 448 -5120
2018-10-21 18:49:51 GMT 43.330589 1.450980 28,375 38 449 -4800
2018-10-21 18:49:47 GMT 43.324905 1.444894 28,650 37 450 -4992
2018-10-21 18:49:41 GMT 43.314697 1.433971 29,175 38 449 -5504
2018-10-21 18:49:37 GMT 43.307362 1.426065 29,575 38 448 -5120
2018-10-21 18:49:31 GMT 43.297913 1.415928 30,050 38 448 -5120
2018-10-21 18:49:26 GMT 43.291065 1.408604 30,425 37 446 -5440
2018-10-21 18:49:20 GMT 43.282013 1.398904 31,475 33 445 -5632
2018-10-21 18:49:15 GMT 43.272720 1.389643 31,425 34 445 -5632
2018-10-21 18:49:10 GMT 43.263462 1.381400 33,075 22 443 -5568
2018-10-21 18:49:05 GMT 43.254135 1.374249 32,425 27 444 -5696
2018-10-21 18:48:57 GMT 43.240540 1.365626 34,475 9 446 -3328
2018-10-21 18:48:53 GMT 43.232666 1.361538 33,475 18 442 -5184
2018-10-21 18:48:48 GMT 43.223473 1.357531 33,875 16 442 -4544
2018-10-21 18:48:44 GMT 43.213577 1.353873 34,150 14 443 -4160
2018-10-21 18:48:37 GMT 43.200027 1.350233 34,975 7 448 -3456
2018-10-21 18:48:31 GMT 43.187897 1.348189 35,300 5 448 -3520
2018-10-21 18:48:27 GMT 43.179428 1.347422 35,375 0 452 -1664
2018-10-21 18:48:23 GMT 43.171417 1.347039 35,375 0 452 -1664
2018-10-21 18:48:18 GMT 43.162262 1.347039 35,500 359 455 -768
2018-10-21 18:48:13 GMT 43.150589 1.347678 35,550 358 457 -832
2018-10-21 18:48:05 GMT 43.133743 1.348891 35,650 358 458 -960
2018-10-21 18:48:02 GMT 43.127342 1.349291 35,700 358 458 -960
2018-10-21 18:47:56 GMT 43.114727 1.350141 35,800 358 460 -960
2018-10-21 18:47:51 GMT 43.103256 1.350935 35,900 358 461 -768
2018-10-21 18:47:45 GMT 43.091080 1.351829 35,975 358 460 -256
2018-10-21 18:47:41 GMT 43.080837 1.352495 36,000 358 460 0
2018-10-21 18:47:33 GMT 43.065216 1.353618 36,000 358 460 0
2018-10-21 18:47:30 GMT 43.058819 1.354065 36,000 358 460 0
2018-10-21 18:47:22 GMT 43.035461 1.355598 36,000 358 460 0
2018-10-21 18:47:11 GMT 43.019257 1.356748 36,000 358 460 64
2018-10-21 18:47:08 GMT 43.010559 1.357323 36,000 358 460 128
2018-10-21 18:47:00 GMT 42.984100 1.359239 36,000 358 460 0
2018-10-21 18:46:56 GMT 42.984100 1.359239 36,000 358 460 0
2018-10-21 18:46:50 GMT 42.973907 1.359950 36,000 358 460 0
2018-10-21 18:46:47 GMT 42.958832 1.361027 36,000 358 460 -64
2018-10-21 18:46:43 GMT 42.958832 1.361027 36,000 358 460 -64
2018-10-21 18:46:39 GMT 42.950729 1.361602 36,000 358 460 -64
2018-10-21 18:46:33 GMT 42.936813 1.362560 36,000 358 460 -64
2018-10-21 18:46:28 GMT 42.926750 1.363220 36,000 358 460 0
2018-10-21 18:46:23 GMT 42.916443 1.363902 36,025 358 460 0
2018-10-21 18:46:20 GMT 42.910175 1.364332 36,025 358 460 0
2018-10-21 18:46:17 GMT 42.904404 1.364732 36,000 358 460 0
2018-10-21 18:46:10 GMT 42.887974 1.365901 36,000 358 461 0
2018-10-21 18:46:05 GMT 42.878540 1.366520 36,000 358 461 0
2018-10-21 18:46:02 GMT 42.870888 1.367079 36,000 358 461 0
2018-10-21 18:45:59 GMT 42.864716 1.367478 36,000 358 461 0
2018-10-21 18:45:56 GMT 42.859249 1.367863 36,000 358 461 0
2018-10-21 18:45:49 GMT 42.843155 1.369011 36,025 358 461 0
2018-10-21 18:45:46 GMT 42.838066 1.369367 36,000 358 461 0
2018-10-21 18:45:40 GMT 42.822006 1.370481 36,000 358 462 0
2018-10-21 18:45:35 GMT 42.814133 1.370992 36,000 358 462 -64
2018-10-21 18:45:31 GMT 42.803711 1.371758 36,025 358 462 -64
2018-10-21 18:45:25 GMT 42.793983 1.372397 36,025 358 462 -64
2018-10-21 18:45:20 GMT 42.781788 1.373227 36,025 358 462 0
2018-10-21 18:45:14 GMT 42.769684 1.374058 36,025 358 462 0
2018-10-21 18:45:09 GMT 42.757645 1.374914 36,025 358 462 0
2018-10-21 18:45:03 GMT 42.746498 1.375654 36,025 358 462 0
2018-10-21 18:44:58 GMT 42.734859 1.376485 36,025 358 462 0
2018-10-21 18:44:51 GMT 42.719696 1.377536 36,025 358 462 -64
2018-10-21 18:44:47 GMT 42.711136 1.378098 36,025 358 462 0
2018-10-21 18:44:41 GMT 42.698868 1.378971 36,050 358 462 0
2018-10-21 18:44:36 GMT 42.687702 1.379742 36,050 358 462 0
2018-10-21 18:44:31 GMT 42.675694 1.380573 36,025 358 462 64
2018-10-21 18:44:25 GMT 42.664948 1.381281 36,025 358 462 64
2018-10-21 18:44:19 GMT 42.651535 1.382217 36,025 358 463 64
2018-10-21 18:44:14 GMT 42.641151 1.382936 36,025 358 463 64
2018-10-21 18:44:09 GMT 42.630066 1.383716 36,000 358 463 0
2018-10-21 18:44:06 GMT 42.622284 1.384277 36,000 358 463 0
2018-10-21 18:44:03 GMT 42.618027 1.384527 36,000 358 463 0
2018-10-21 18:43:59 GMT 42.607540 1.385235 36,000 358 463 64
2018-10-21 18:43:55 GMT 42.600769 1.385713 36,000 358 464 64
2018-10-21 18:43:52 GMT 42.594555 1.386130 36,000 358 464 0
2018-10-21 18:43:49 GMT 42.588089 1.386587 36,000 358 463 0
2018-10-21 18:43:45 GMT 42.577141 1.387343 36,000 358 463 0
2018-10-21 18:43:41 GMT 42.570648 1.387773 36,000 358 463 64
2018-10-21 18:43:38 GMT 42.562454 1.388335 36,000 358 463 64
2018-10-21 18:43:34 GMT 42.555031 1.388812 36,000 358 463 0
2018-10-21 18:43:30 GMT 42.546139 1.389451 36,000 358 463 0
2018-10-21 18:43:26 GMT 42.536316 1.390083 36,000 358 463 0
2018-10-21 18:43:23 GMT 42.532516 1.390395 36,000 358 463 0
2018-10-21 18:43:17 GMT 42.519150 1.391269 36,000 358 462 0
2018-10-21 18:43:13 GMT 42.510361 1.391893 36,000 358 461 0
2018-10-21 18:43:07 GMT 42.497040 1.392829 36,000 358 462 0
2018-10-21 18:43:02 GMT 42.488068 1.393391 36,000 358 462 0
2018-10-21 18:42:56 GMT 42.474075 1.394369 36,000 358 462 0
2018-10-21 18:42:52 GMT 42.466209 1.394880 36,000 358 462 0
2018-10-21 18:42:45 GMT 42.451637 1.395902 36,000 358 461 0
2018-10-21 18:42:42 GMT 42.442749 1.396450 36,000 358 461 0
2018-10-21 18:42:35 GMT 42.429108 1.397386 36,000 358 461 0
2018-10-21 18:42:31 GMT 42.405922 1.398968 36,000 358 461 64
2018-10-21 18:42:24 GMT 42.405922 1.398968 36,000 358 461 64
2018-10-21 18:42:20 GMT 42.396519 1.399607 36,000 358 461 0
2018-10-21 18:42:16 GMT 42.385666 1.400320 36,000 358 461 0
2018-10-21 18:42:13 GMT 42.381180 1.400632 36,000 358 461 -64
2018-10-21 18:42:10 GMT 42.359043 1.402162 36,000 358 461 -64
2018-10-21 18:42:02 GMT 42.359043 1.402162 36,000 358 461 0
2018-10-21 18:41:52 GMT 42.338142 1.403567 36,000 358 462 0
2018-10-21 18:41:49 GMT 42.330597 1.404065 36,000 358 462 0
2018-10-21 18:41:41 GMT 42.313660 1.405189 36,000 358 462 0
2018-10-21 18:41:38 GMT 42.308117 1.405547 36,000 358 462 0
2018-10-21 18:41:30 GMT 42.290009 1.406697 36,000 358 462 64
2018-10-21 18:41:27 GMT 42.283859 1.406999 36,000 359 462 64
2018-10-21 18:41:20 GMT 42.268547 1.407144 36,000 1 460 -64
2018-10-21 18:41:17 GMT 42.262115 1.406937 36,000 1 459 -64
2018-10-21 18:41:10 GMT 42.247227 1.405931 36,000 4 456 -64
2018-10-21 18:41:07 GMT 42.240738 1.405251 36,000 5 455 0
2018-10-21 18:40:59 GMT 42.224396 1.402942 36,025 7 452 64
2018-10-21 18:40:56 GMT 42.217854 1.401779 36,000 8 451 0
2018-10-21 18:40:49 GMT 42.202351 1.398713 36,000 8 451 64
2018-10-21 18:40:46 GMT 42.195648 1.397324 36,000 8 451 64
2018-10-21 18:40:38 GMT 42.179535 1.394015 36,000 8 451 64
2018-10-21 18:40:34 GMT 42.174179 1.392954 36,000 8 451 64
2018-10-21 18:40:27 GMT 42.158890 1.389833 35,975 8 451 64
2018-10-21 18:40:24 GMT 42.151653 1.388301 35,975 8 451 64
2018-10-21 18:40:17 GMT 42.137329 1.385401 35,975 8 451 64
2018-10-21 18:40:14 GMT 42.129456 1.383778 35,975 8 451 64
2018-10-21 18:40:07 GMT 42.115669 1.380956 35,975 8 451 64
2018-10-21 18:40:02 GMT 42.108170 1.379408 35,975 8 451 64
2018-10-21 18:39:56 GMT 42.093929 1.376549 35,975 8 451 64
2018-10-21 18:39:53 GMT 42.087616 1.375226 35,950 8 451 64
2018-10-21 18:39:45 GMT 42.065765 1.370800 35,950 8 450 0
2018-10-21 18:39:42 GMT 42.065765 1.370800 35,950 8 450 0
2018-10-21 18:39:35 GMT 42.050446 1.367673 35,950 8 450 0
2018-10-21 18:39:31 GMT 42.043945 1.366362 35,950 8 450 0
2018-10-21 18:39:24 GMT 42.029388 1.363366 35,950 8 450 0
2018-10-21 18:39:21 GMT 42.022430 1.361930 35,975 8 450 0
2018-10-21 18:39:13 GMT 42.004852 1.358372 35,975 8 450 -64
2018-10-21 18:39:10 GMT 42.000546 1.357514 35,975 8 450 -64
2018-10-21 18:39:03 GMT 41.983974 1.354129 35,975 8 449 -64
2018-10-21 18:39:00 GMT 41.978806 1.353043 35,975 8 449 0
2018-10-21 18:38:52 GMT 41.962326 1.349722 35,975 8 449 -64
2018-10-21 18:38:49 GMT 41.957718 1.348763 35,975 8 449 -64
2018-10-21 18:38:43 GMT 41.935410 1.344265 36,050 8 449 -128
2018-10-21 18:38:39 GMT 41.935410 1.344265 36,000 8 449 -128
2018-10-21 18:38:32 GMT 41.921036 1.341354 36,025 8 449 -128
2018-10-21 18:38:29 GMT 41.915039 1.340145 36,025 8 449 -64
2018-10-21 18:38:25 GMT 41.906433 1.338397 36,025 8 449 -64
2018-10-21 18:38:21 GMT 41.898422 1.336774 36,050 8 449 -64
2018-10-21 18:38:18 GMT 41.892498 1.335541 36,050 8 449 -64
2018-10-21 18:38:13 GMT 41.880905 1.333178 36,050 8 449 0
2018-10-21 18:38:09 GMT 41.873886 1.331780 36,050 8 449 0
2018-10-21 18:38:02 GMT 41.857681 1.328472 36,050 8 450 0
2018-10-21 18:37:58 GMT 41.851440 1.327238 36,050 8 450 0
2018-10-21 18:37:50 GMT 41.835007 1.323853 36,050 8 451 64
2018-10-21 18:37:47 GMT 41.829758 1.322791 36,050 8 451 64
2018-10-21 18:37:43 GMT 41.821243 1.321106 36,050 8 451 0
2018-10-21 18:37:40 GMT 41.814754 1.319765 36,050 8 451 0
2018-10-21 18:37:36 GMT 41.806332 1.318104 36,050 8 451 0
2018-10-21 18:37:32 GMT 41.796021 1.315987 36,050 8 451 0
2018-10-21 18:37:29 GMT 41.792130 1.315176 36,050 8 451 64
2018-10-21 18:37:26 GMT 41.784870 1.313760 36,050 8 451 0
2018-10-21 18:37:20 GMT 41.773327 1.311397 36,050 8 451 64
2018-10-21 18:37:16 GMT 41.764900 1.309736 36,050 8 452 64
2018-10-21 18:37:13 GMT 41.758850 1.308497 36,025 8 452 64
2018-10-21 18:37:08 GMT 41.739109 1.304499 36,025 8 452 64
2018-10-21 18:37:03 GMT 41.739109 1.304499 36,025 8 452 64
2018-10-21 18:36:58 GMT 41.725433 1.301755 36,025 8 452 0
2018-10-21 18:36:55 GMT 41.721405 1.300944 36,025 8 452 0
2018-10-21 18:36:52 GMT 41.715134 1.299708 36,025 8 452 0
2018-10-21 18:36:48 GMT 41.706570 1.297984 36,025 8 452 0
2018-10-21 18:36:44 GMT 41.698467 1.296323 36,025 8 452 0
2018-10-21 18:36:41 GMT 41.691559 1.294951 36,025 8 451 0
2018-10-21 18:36:38 GMT 41.685013 1.293640 36,025 8 451 0
2018-10-21 18:36:34 GMT 41.670258 1.290702 36,025 8 451 0
2018-10-21 18:36:31 GMT 41.670258 1.290702 36,025 8 451 0
2018-10-21 18:36:24 GMT 41.656990 1.288019 36,025 8 451 0
2018-10-21 18:36:21 GMT 41.648705 1.286359 36,025 8 451 0
2018-10-21 18:36:18 GMT 41.645584 1.285720 36,025 8 451 0
2018-10-21 18:36:14 GMT 41.635902 1.283804 36,025 8 450 0
2018-10-21 18:36:07 GMT 41.620819 1.280801 36,050 8 450 0
2018-10-21 18:36:03 GMT 41.613419 1.279283 36,050 8 450 0
2018-10-21 18:36:00 GMT 41.608437 1.278310 36,050 8 450 0
2018-10-21 18:35:55 GMT 41.598660 1.276330 36,050 8 450 0
2018-10-21 18:35:52 GMT 41.592281 1.275053 36,050 8 450 -64
2018-10-21 18:35:49 GMT 41.585999 1.273775 36,050 8 449 0
2018-10-21 18:35:45 GMT 41.576340 1.271855 36,050 8 448 64
2018-10-21 18:35:42 GMT 41.570824 1.270773 36,050 8 448 64
2018-10-21 18:35:39 GMT 41.564392 1.269483 36,050 8 448 64
2018-10-21 18:35:35 GMT 41.549503 1.266494 36,025 8 447 64
2018-10-21 18:35:28 GMT 41.542332 1.265025 36,025 8 447 0
2018-10-21 18:35:24 GMT 41.523010 1.261181 36,025 8 447 0
2018-10-21 18:35:20 GMT 41.523010 1.261181 36,025 8 446 64
2018-10-21 18:35:16 GMT 41.518799 1.260307 36,025 8 446 64
2018-10-21 18:35:12 GMT 41.509418 1.258446 36,025 8 445 64
2018-10-21 18:35:09 GMT 41.503464 1.257248 36,025 8 445 64
2018-10-21 18:35:06 GMT 41.498199 1.256187 36,025 8 445 64
2018-10-21 18:35:01 GMT 41.485352 1.253655 36,025 8 445 128
2018-10-21 18:34:58 GMT 41.481163 1.252825 36,025 8 444 64
2018-10-21 18:34:54 GMT 41.473755 1.251318 36,000 8 444 64
2018-10-21 18:34:51 GMT 41.466705 1.249945 36,000 8 444 64
2018-10-21 18:34:48 GMT 41.461395 1.248883 36,000 8 443 0
2018-10-21 18:34:44 GMT 41.453293 1.247260 36,000 8 443 0
2018-10-21 18:34:40 GMT 41.441849 1.244951 36,000 8 443 0
2018-10-21 18:34:37 GMT 41.438828 1.244327 36,000 8 442 0
2018-10-21 18:34:31 GMT 41.420700 1.240706 36,000 8 441 64
2018-10-21 18:34:22 GMT 41.408588 1.238261 36,000 8 440 64
2018-10-21 18:34:17 GMT 41.397995 1.236149 36,000 8 440 64
2018-10-21 18:34:13 GMT 41.390213 1.234651 36,000 8 440 64
2018-10-21 18:34:08 GMT 41.376755 1.231934 36,000 8 439 64
2018-10-21 18:34:04 GMT 41.371113 1.230843 36,000 8 439 64
2018-10-21 18:33:59 GMT 41.361328 1.228882 36,000 8 438 64
2018-10-21 18:33:56 GMT 41.353912 1.227417 36,000 8 438 0
2018-10-21 18:33:47 GMT 41.336472 1.223938 36,000 8 438 -64
2018-10-21 18:33:44 GMT 41.331264 1.222916 36,000 8 437 64
2018-10-21 18:33:36 GMT 41.315716 1.219795 36,000 8 437 0
2018-10-21 18:33:32 GMT 41.308182 1.218262 36,000 8 436 -64
2018-10-21 18:33:27 GMT 41.286480 1.213927 36,000 8 437 -64
2018-10-21 18:33:22 GMT 41.286480 1.213927 36,000 8 437 64
2018-10-21 18:33:16 GMT 41.274750 1.211555 36,000 8 437 0
2018-10-21 18:33:10 GMT 41.263763 1.209308 36,000 8 436 0
2018-10-21 18:33:05 GMT 41.253616 1.207275 36,000 8 438 64
2018-10-21 18:32:58 GMT 41.240387 1.204651 36,000 8 440 -64
2018-10-21 18:32:55 GMT 41.232513 1.203064 36,000 8 441 -64
2018-10-21 18:32:48 GMT 41.217270 1.200073 36,025 8 443 -64
2018-10-21 18:32:45 GMT 41.210648 1.198821 36,025 8 444 0
2018-10-21 18:32:39 GMT 41.199966 1.196716 36,025 8 445 0
2018-10-21 18:32:34 GMT 41.190350 1.194826 36,000 8 448 64
2018-10-21 18:32:22 GMT 41.165771 1.190082 36,000 8 451 64
2018-10-21 18:32:12 GMT 41.144588 1.185899 35,975 8 456 64
2018-10-21 18:32:02 GMT 41.122849 1.181592 35,975 8 457 64
2018-10-21 18:31:50 GMT 41.098827 1.176786 35,950 8 457 64
2018-10-21 18:31:38 GMT 41.074158 1.171917 35,950 8 456 64
2018-10-21 18:31:27 GMT 41.050140 1.167175 35,950 8 456 64
2018-10-21 18:31:19 GMT 41.033936 1.164001 35,950 8 455 0
2018-10-21 18:31:16 GMT 41.027000 1.162616 35,950 8 455 0
2018-10-21 18:31:11 GMT 41.016678 1.160583 35,950 8 455 -64
2018-10-21 18:31:08 GMT 41.010845 1.159432 35,950 8 455 0
2018-10-21 18:31:04 GMT 41.003212 1.157934 35,950 8 455 0
2018-10-21 18:30:57 GMT 40.987656 1.154907 35,950 8 454 0
2018-10-21 18:30:54 GMT 40.979233 1.153259 35,950 8 454 -64
2018-10-21 18:30:49 GMT 40.968857 1.151255 35,950 8 454 -64
2018-10-21 18:30:46 GMT 40.965782 1.150631 35,950 8 454 -128
2018-10-21 18:30:42 GMT 40.957684 1.149008 35,975 8 454 -128
2018-10-21 18:30:38 GMT 40.945770 1.146667 35,975 8 454 -128
2018-10-21 18:30:35 GMT 40.934418 1.144470 36,000 8 454 -128
2018-10-21 18:30:32 GMT 40.934418 1.144470 36,000 8 454 -128
2018-10-21 18:30:27 GMT 40.923744 1.142328 36,000 8 453 -64
2018-10-21 18:30:23 GMT 40.917480 1.141113 36,000 8 453 -64
2018-10-21 18:30:20 GMT 40.910198 1.139707 36,000 8 453 0
2018-10-21 18:30:16 GMT 40.901276 1.137939 36,000 8 453 0
2018-10-21 18:30:13 GMT 40.896973 1.137085 36,000 8 453 0
2018-10-21 18:30:10 GMT 40.889530 1.135649 36,000 8 453 64
2018-10-21 18:30:05 GMT 40.879852 1.133728 36,000 8 454 0
2018-10-21 18:30:02 GMT 40.873379 1.132466 36,000 8 454 0
2018-10-21 18:29:59 GMT 40.867355 1.131226 36,000 8 454 0
2018-10-21 18:29:55 GMT 40.857082 1.129220 36,000 8 455 0
2018-10-21 18:29:51 GMT 40.850510 1.127930 36,000 8 455 -64
2018-10-21 18:29:48 GMT 40.844234 1.126723 36,000 8 455 -64
2018-10-21 18:29:44 GMT 40.834167 1.124756 36,000 8 455 -64
2018-10-21 18:29:41 GMT 40.831013 1.124101 36,025 8 455 -64
2018-10-21 18:29:37 GMT 40.821350 1.122192 36,025 8 455 -64
2018-10-21 18:29:32 GMT 40.809647 1.119919 36,025 8 455 -64
2018-10-21 18:29:26 GMT 40.799126 1.117859 36,025 8 455 0
2018-10-21 18:29:20 GMT 40.787018 1.115479 36,025 8 456 0
2018-10-21 18:29:16 GMT 40.776920 1.113489 36,025 8 456 0
2018-10-21 18:29:10 GMT 40.765049 1.111180 36,025 8 457 -64
2018-10-21 18:29:06 GMT 40.755135 1.109182 36,025 8 458 -64
2018-10-21 18:28:57 GMT 40.736374 1.105499 36,050 8 457 0
2018-10-21 18:28:54 GMT 40.732090 1.104688 36,050 8 457 0
2018-10-21 18:28:50 GMT 40.721741 1.102661 36,050 8 457 64
2018-10-21 18:28:43 GMT 40.709244 1.100220 36,050 8 458 128
2018-10-21 18:28:38 GMT 40.698898 1.098145 36,025 8 458 128
2018-10-21 18:28:35 GMT 40.690704 1.096558 36,025 8 459 128
2018-10-21 18:28:32 GMT 40.682877 1.095032 36,000 8 459 64
2018-10-21 18:28:28 GMT 40.676228 1.093764 36,000 8 460 0
2018-10-21 18:28:22 GMT 40.662689 1.091125 36,025 8 460 -64
2018-10-21 18:28:17 GMT 40.653992 1.089417 36,025 8 460 -64
2018-10-21 18:28:14 GMT 40.644287 1.087524 36,025 8 459 0
2018-10-21 18:28:10 GMT 40.639389 1.086609 36,025 8 459 0
2018-10-21 18:28:07 GMT 40.631165 1.085025 36,025 8 459 64
2018-10-21 18:28:02 GMT 40.614990 1.081848 36,025 8 460 64
2018-10-21 18:27:59 GMT 40.614990 1.081848 36,025 8 460 64
2018-10-21 18:27:52 GMT 40.599789 1.078907 36,000 8 460 0
2018-10-21 18:27:49 GMT 40.593750 1.077759 36,000 8 460 0
2018-10-21 18:27:45 GMT 40.584194 1.075911 36,025 8 460 0
2018-10-21 18:27:40 GMT 40.576584 1.074463 36,025 8 460 0
2018-10-21 18:27:37 GMT 40.568573 1.072876 36,025 8 460 0
2018-10-21 18:27:34 GMT 40.561203 1.071472 36,025 8 460 0
2018-10-21 18:27:31 GMT 40.554588 1.070231 36,025 8 460 0
2018-10-21 18:27:26 GMT 40.545605 1.068483 36,025 8 460 0
2018-10-21 18:27:21 GMT 40.535110 1.066406 36,025 8 461 0
2018-10-21 18:27:18 GMT 40.527775 1.064987 36,025 8 461 0
2018-10-21 18:27:15 GMT 40.522247 1.063904 36,025 8 461 0
2018-10-21 18:27:10 GMT 40.512085 1.061928 36,025 8 461 0
2018-10-21 18:27:05 GMT 40.502197 1.059998 36,025 8 461 0
2018-10-21 18:27:02 GMT 40.485737 1.056747 36,025 8 460 0
2018-10-21 18:26:57 GMT 40.479538 1.055542 36,025 8 460 0
2018-10-21 18:26:54 GMT 40.479538 1.055542 36,025 8 460 0
2018-10-21 18:26:50 GMT 40.470001 1.053689 36,025 8 459 0
2018-10-21 18:26:47 GMT 40.464695 1.052690 36,025 8 460 0
2018-10-21 18:26:44 GMT 40.457664 1.051317 36,025 8 459 0
2018-10-21 18:26:40 GMT 40.447842 1.049444 36,025 8 459 0
2018-10-21 18:26:37 GMT 40.442551 1.048401 36,025 8 459 0
2018-10-21 18:26:34 GMT 40.436111 1.047134 36,025 8 459 0
2018-10-21 18:26:30 GMT 40.419865 1.044013 36,025 8 459 64
2018-10-21 18:26:24 GMT 40.413162 1.042664 36,025 8 459 0
2018-10-21 18:26:17 GMT 40.400620 1.040222 36,025 8 459 -64
2018-10-21 18:26:12 GMT 40.390629 1.038333 36,025 8 459 0
2018-10-21 18:26:09 GMT 40.382034 1.036621 36,025 8 459 0
2018-10-21 18:26:04 GMT 40.373501 1.035024 36,025 8 459 0
2018-10-21 18:26:00 GMT 40.365540 1.033464 36,025 8 459 0
2018-10-21 18:25:54 GMT 40.351574 1.030780 36,025 8 459 0
2018-10-21 18:25:50 GMT 40.344170 1.029344 36,025 8 459 64
2018-10-21 18:25:47 GMT 40.337631 1.028076 36,025 8 459 64
2018-10-21 18:25:43 GMT 40.330021 1.026597 36,025 8 459 0
2018-10-21 18:25:40 GMT 40.321964 1.025037 36,025 8 459 0
2018-10-21 18:25:33 GMT 40.309071 1.022602 36,000 8 458 64
2018-10-21 18:25:29 GMT 40.299088 1.020630 36,000 8 458 64
2018-10-21 18:25:26 GMT 40.290573 1.019043 36,000 8 458 128
2018-10-21 18:25:23 GMT 40.287094 1.018372 36,000 8 458 128
2018-10-21 18:25:18 GMT 40.276855 1.016423 36,000 8 458 64
2018-10-21 18:25:12 GMT 40.264618 1.014038 35,975 8 458 128
2018-10-21 18:25:09 GMT 40.256241 1.012451 35,975 8 458 64
2018-10-21 18:25:05 GMT 40.247482 1.010742 35,975 8 458 64
2018-10-21 18:25:02 GMT 40.242920 1.009868 35,975 8 457 64
2018-10-21 18:24:58 GMT 40.234169 1.008120 35,975 8 457 0
2018-10-21 18:24:52 GMT 40.220993 1.005561 35,975 8 457 0
2018-10-21 18:24:47 GMT 40.210281 1.003540 35,975 8 456 0
2018-10-21 18:24:41 GMT 40.197739 1.001099 35,975 8 456 0
2018-10-21 18:24:37 GMT 40.190506 0.999695 35,975 8 456 64
2018-10-21 18:24:31 GMT 40.176819 0.997070 35,975 8 455 64
2018-10-21 18:24:28 GMT 40.171509 0.996073 35,950 8 455 64
2018-10-21 18:24:24 GMT 40.161438 0.994141 35,950 8 455 64
2018-10-21 18:24:19 GMT 40.152145 0.992371 35,950 8 455 64
2018-10-21 18:24:16 GMT 40.145763 0.991142 35,950 8 455 0
2018-10-21 18:24:12 GMT 40.138317 0.989706 35,950 8 454 -64
2018-10-21 18:24:09 GMT 40.132050 0.988464 35,950 8 454 0
2018-10-21 18:24:05 GMT 40.121281 0.986397 35,950 8 454 0
2018-10-21 18:23:59 GMT 40.110947 0.984436 35,950 8 454 -64
2018-10-21 18:23:56 GMT 40.104336 0.983152 35,975 8 454 0
2018-10-21 18:23:52 GMT 40.097443 0.981812 35,975 8 454 0
2018-10-21 18:23:46 GMT 40.083851 0.979219 35,975 8 453 0
2018-10-21 18:23:43 GMT 40.077301 0.977966 35,975 8 453 -64
2018-10-21 18:23:39 GMT 40.068970 0.976318 35,975 8 453 0
2018-10-21 18:23:34 GMT 40.058666 0.974350 35,975 8 453 0
2018-10-21 18:23:30 GMT 40.051666 0.973022 35,975 8 452 0
2018-10-21 18:23:27 GMT 40.043930 0.971558 35,975 8 452 0
2018-10-21 18:23:24 GMT 40.037624 0.970293 35,975 8 452 0
2018-10-21 18:23:20 GMT 40.029758 0.968794 35,975 8 452 0
2018-10-21 18:23:17 GMT 40.023697 0.967651 35,975 8 452 0
2018-10-21 18:23:14 GMT 40.017094 0.966360 35,975 8 452 0
2018-10-21 18:23:11 GMT 40.010067 0.965049 35,975 8 452 0
2018-10-21 18:23:07 GMT 40.002136 0.963501 35,975 8 452 0
2018-10-21 18:23:02 GMT 39.986343 0.960449 35,975 8 452 0
2018-10-21 18:22:59 GMT 39.986343 0.960449 35,975 8 452 64
2018-10-21 18:22:53 GMT 39.973297 0.957947 35,975 8 452 0
2018-10-21 18:22:48 GMT 39.962627 0.955873 35,975 8 452 0
2018-10-21 18:22:42 GMT 39.951271 0.953688 35,950 8 452 0
2018-10-21 18:22:38 GMT 39.942192 0.951940 35,950 8 453 0
2018-10-21 18:22:34 GMT 39.933998 0.950380 35,975 8 453 -64
2018-10-21 18:22:31 GMT 39.927612 0.949158 35,975 8 453 -64
2018-10-21 18:22:27 GMT 39.919510 0.947631 35,975 8 453 -64
2018-10-21 18:22:24 GMT 39.913052 0.946350 35,975 8 453 -64
2018-10-21 18:22:19 GMT 39.901794 0.944227 35,975 8 452 -64
2018-10-21 18:22:13 GMT 39.891541 0.942137 36,000 9 453 -64
2018-10-21 18:22:09 GMT 39.883484 0.940406 36,000 10 452 0
2018-10-21 18:22:02 GMT 39.868130 0.936584 36,000 12 453 -64
2018-10-21 18:21:59 GMT 39.862747 0.935151 36,000 12 453 -64
2018-10-21 18:21:53 GMT 39.848831 0.931032 36,000 13 453 -64
2018-10-21 18:21:50 GMT 39.843689 0.929443 36,000 14 453 0
2018-10-21 18:21:43 GMT 39.826881 0.923767 36,000 14 453 -64
2018-10-21 18:21:39 GMT 39.820450 0.921538 36,000 14 454 -64
2018-10-21 18:21:30 GMT 39.801636 0.915746 36,000 14 454 -64
2018-10-21 18:21:27 GMT 39.797516 0.913597 36,025 14 455 -64
2018-10-21 18:21:20 GMT 39.783737 0.908820 36,025 14 455 -64
2018-10-21 18:21:17 GMT 39.777283 0.906611 36,025 14 455 -64
2018-10-21 18:21:09 GMT 39.759430 0.900461 36,025 14 456 0
2018-10-21 18:21:06 GMT 39.748810 0.896759 36,025 14 457 -64
2018-10-21 18:20:59 GMT 39.739380 0.893535 36,025 14 457 -64
2018-10-21 18:20:56 GMT 39.730911 0.890609 36,025 14 457 -64
2018-10-21 18:20:48 GMT 39.717251 0.885925 36,050 14 458 -64
2018-10-21 18:20:44 GMT 39.709717 0.883325 36,050 14 458 -64
2018-10-21 18:20:37 GMT 39.692532 0.877441 36,050 14 459 0
2018-10-21 18:20:34 GMT 39.686096 0.875204 36,050 14 459 64
2018-10-21 18:20:26 GMT 39.671955 0.870361 36,050 14 460 0
2018-10-21 18:20:22 GMT 39.664413 0.867798 36,050 14 460 0
2018-10-21 18:20:17 GMT 39.645721 0.861412 36,050 14 461 0
2018-10-21 18:20:13 GMT 39.645721 0.861412 36,050 14 461 0
2018-10-21 18:20:07 GMT 39.632538 0.856874 36,050 14 462 -64
2018-10-21 18:20:02 GMT 39.622379 0.853394 36,050 14 462 -64
2018-10-21 18:19:56 GMT 39.610600 0.849365 36,050 14 463 64
2018-10-21 18:19:52 GMT 39.599579 0.845589 36,050 14 463 64
2018-10-21 18:19:47 GMT 39.589745 0.842224 36,050 14 463 64
2018-10-21 18:19:43 GMT 39.583191 0.839976 36,050 14 463 64
2018-10-21 18:19:40 GMT 39.574814 0.837110 36,025 14 464 64
2018-10-21 18:19:33 GMT 39.554306 0.830125 36,025 14 464 64
2018-10-21 18:19:30 GMT 39.554306 0.830125 36,025 14 464 64
2018-10-21 18:19:26 GMT 39.545883 0.827199 36,025 14 464 64
2018-10-21 18:19:22 GMT 39.537186 0.824273 36,025 14 464 0
2018-10-21 18:19:19 GMT 39.530903 0.822083 36,025 14 464 0
2018-10-21 18:19:14 GMT 39.522942 0.819397 36,025 14 464 0
2018-10-21 18:19:10 GMT 39.514332 0.816406 36,025 14 465 0
2018-10-21 18:19:03 GMT 39.500153 0.811555 36,025 14 465 0
2018-10-21 18:18:59 GMT 39.491776 0.808749 36,025 14 465 0
2018-10-21 18:18:53 GMT 39.479279 0.804450 36,025 14 465 0
2018-10-21 18:18:48 GMT 39.469360 0.801025 36,025 14 465 0
2018-10-21 18:18:43 GMT 39.456573 0.796688 36,025 14 464 64
2018-10-21 18:18:38 GMT 39.445587 0.792926 36,025 14 464 0
2018-10-21 18:18:34 GMT 39.438965 0.790588 36,025 14 464 64
2018-10-21 18:18:28 GMT 39.426113 0.786194 36,000 14 464 128
2018-10-21 18:18:23 GMT 39.417297 0.783194 36,000 14 464 128
2018-10-21 18:18:18 GMT 39.404114 0.778656 35,975 14 464 64
2018-10-21 18:18:13 GMT 39.396832 0.776123 35,975 14 464 64
2018-10-21 18:18:10 GMT 39.388458 0.773282 35,975 14 464 64
2018-10-21 18:18:05 GMT 39.379990 0.770416 35,975 14 464 64
2018-10-21 18:18:02 GMT 39.373810 0.768267 35,975 14 464 0
2018-10-21 18:17:55 GMT 39.359406 0.763367 35,975 14 464 64
2018-10-21 18:17:52 GMT 39.352283 0.760925 35,975 14 463 0
2018-10-21 18:17:47 GMT 39.342545 0.757639 35,975 14 463 0
2018-10-21 18:17:43 GMT 39.332565 0.754235 35,975 14 463 0
2018-10-21 18:17:35 GMT 39.315319 0.748413 35,975 14 463 -64
2018-10-21 18:17:25 GMT 39.296082 0.741876 35,975 14 462 0
2018-10-21 18:17:22 GMT 39.289532 0.739685 35,975 14 462 0
2018-10-21 18:17:16 GMT 39.277100 0.735474 35,975 14 461 0
2018-10-21 18:17:12 GMT 39.268349 0.732483 35,975 14 462 0
2018-10-21 18:17:00 GMT 39.245636 0.724799 35,975 14 461 -64
2018-10-21 18:16:55 GMT 39.233597 0.720679 36,000 14 461 0
2018-10-21 18:16:51 GMT 39.225357 0.717873 36,000 14 460 0
2018-10-21 18:16:46 GMT 39.212952 0.713634 36,000 14 460 0
2018-10-21 18:16:40 GMT 39.204208 0.710648 36,000 14 460 0
2018-10-21 18:16:30 GMT 39.182972 0.703430 36,000 14 461 0
2018-10-21 18:16:18 GMT 39.139618 0.688795 36,000 14 460 0
2018-10-21 18:16:09 GMT 39.139618 0.688795 36,000 14 460 0
2018-10-21 18:15:57 GMT 39.114532 0.680316 36,000 14 460 0
2018-10-21 18:15:51 GMT 39.102127 0.676077 36,000 14 460 -64
2018-10-21 18:15:48 GMT 39.096336 0.674133 36,000 14 460 -64
2018-10-21 18:15:42 GMT 39.083862 0.669922 36,025 14 460 -64
2018-10-21 18:15:37 GMT 39.072922 0.666225 36,025 14 460 0
2018-10-21 18:15:32 GMT 39.063099 0.662903 36,025 14 460 0
2018-10-21 18:15:29 GMT 39.056717 0.660732 36,025 14 459 0
2018-10-21 18:15:24 GMT 39.047272 0.657593 36,025 14 459 0
2018-10-21 18:15:20 GMT 39.039230 0.654881 36,000 14 461 0
2018-10-21 18:15:16 GMT 39.030094 0.651794 36,000 14 461 0
2018-10-21 18:15:08 GMT 39.011169 0.645447 36,025 14 461 0
2018-10-21 18:15:03 GMT 39.003571 0.642879 36,025 14 461 0
2018-10-21 18:14:58 GMT 38.992435 0.639099 36,000 14 461 0
2018-10-21 18:14:48 GMT 38.971905 0.632202 36,025 14 461 -64
2018-10-21 18:14:44 GMT 38.962784 0.629146 36,025 14 461 0
2018-10-21 18:14:38 GMT 38.951096 0.625183 36,025 14 461 0
2018-10-21 18:14:32 GMT 38.940445 0.621623 36,025 14 461 0
2018-10-21 18:14:27 GMT 38.928909 0.617742 36,025 14 461 0
2018-10-21 18:14:23 GMT 38.918137 0.614075 36,000 14 461 128
2018-10-21 18:14:16 GMT 38.907104 0.610352 36,000 14 461 128
2018-10-21 18:14:09 GMT 38.893139 0.605713 36,000 14 461 128
2018-10-21 18:14:06 GMT 38.885689 0.603149 35,975 14 461 64
2018-10-21 18:14:01 GMT 38.874710 0.599471 35,975 14 462 -64
2018-10-21 18:13:57 GMT 38.865112 0.596252 35,975 14 462 0
2018-10-21 18:13:50 GMT 38.853745 0.592426 35,975 14 461 64
2018-10-21 18:13:46 GMT 38.844303 0.589233 35,975 14 461 0
2018-10-21 18:13:40 GMT 38.833099 0.585500 35,975 14 461 0
2018-10-21 18:13:35 GMT 38.822021 0.581738 35,975 14 461 128
2018-10-21 18:13:28 GMT 38.807808 0.576965 35,975 14 461 64
2018-10-21 18:13:25 GMT 38.801559 0.574872 35,975 14 461 64
2018-10-21 18:13:19 GMT 38.788376 0.570453 35,975 14 460 0
2018-10-21 18:13:15 GMT 38.766098 0.562988 35,950 14 459 0
2018-10-21 18:13:09 GMT 38.766098 0.562988 35,975 14 460 -64
2018-10-21 18:13:04 GMT 38.757439 0.560120 35,975 14 460 -64
2018-10-21 18:12:56 GMT 38.740444 0.554504 35,975 14 459 0
2018-10-21 18:12:53 GMT 38.734268 0.552421 35,975 14 459 0
2018-10-21 18:12:47 GMT 38.722366 0.548421 35,975 14 458 0
2018-10-21 18:12:43 GMT 38.714722 0.545853 35,975 14 458 64
2018-10-21 18:12:33 GMT 38.694397 0.539047 35,950 14 458 -64
2018-10-21 18:12:29 GMT 38.685196 0.535942 35,950 14 459 0
2018-10-21 18:12:23 GMT 38.673386 0.532061 35,950 14 459 0
2018-10-21 18:12:13 GMT 38.652283 0.525015 35,975 14 459 -64
2018-10-21 18:11:58 GMT 38.612000 0.511640 35,975 14 459 -64
2018-10-21 18:11:52 GMT 38.588081 0.503662 36,000 14 459 -128
2018-10-21 18:11:42 GMT 38.588081 0.503662 36,000 14 459 -128
2018-10-21 18:11:31 GMT 38.566711 0.496521 36,025 14 459 -128
2018-10-21 18:11:21 GMT 38.545670 0.489548 36,025 14 460 -64
2018-10-21 18:11:10 GMT 38.523788 0.482264 36,025 14 461 64
2018-10-21 18:11:01 GMT 38.503555 0.475577 36,025 14 462 0
2018-10-21 18:10:49 GMT 38.480072 0.467815 36,025 14 463 0
2018-10-21 18:10:40 GMT 38.459457 0.460938 36,050 14 465 0
2018-10-21 18:10:29 GMT 38.438648 0.454041 36,025 14 464 128
2018-10-21 18:10:19 GMT 38.415985 0.446499 36,000 14 465 64
2018-10-21 18:10:14 GMT 38.405598 0.443095 36,000 14 465 0
2018-10-21 18:10:10 GMT 38.397263 0.440289 36,000 14 465 0
2018-10-21 18:10:00 GMT 38.375290 0.433025 36,000 14 466 0
2018-10-21 18:09:49 GMT 38.353683 0.425837 36,000 14 467 64
2018-10-21 18:09:39 GMT 38.332581 0.418883 36,000 14 466 0
2018-10-21 18:09:29 GMT 38.311752 0.411987 36,000 14 466 0
2018-10-21 18:09:18 GMT 38.289124 0.404524 36,000 14 466 64
2018-10-21 18:09:14 GMT 38.280277 0.401598 36,000 14 466 64
2018-10-21 18:09:06 GMT 38.264729 0.396463 36,000 14 466 0
2018-10-21 18:08:57 GMT 38.246292 0.390433 36,000 14 466 0
2018-10-21 18:08:53 GMT 38.237366 0.387443 36,000 14 466 0
2018-10-21 18:08:47 GMT 38.224594 0.383236 36,000 14 466 64
2018-10-21 18:08:42 GMT 38.214172 0.379805 36,000 14 465 64
2018-10-21 18:08:37 GMT 38.203171 0.376223 36,000 14 465 0
2018-10-21 18:08:32 GMT 38.194107 0.373243 36,000 14 465 0
2018-10-21 18:08:27 GMT 38.182434 0.369386 36,000 14 465 -64
2018-10-21 18:08:20 GMT 38.166092 0.364010 36,000 14 465 -64
2018-10-21 18:08:15 GMT 38.158401 0.361497 36,000 14 464 0
2018-10-21 18:08:06 GMT 38.139458 0.355264 36,000 14 463 0
2018-10-21 18:08:02 GMT 38.130009 0.352160 36,000 14 463 0
2018-10-21 18:07:55 GMT 38.116879 0.347861 36,000 14 464 0
2018-10-21 18:07:45 GMT 38.096165 0.341054 36,000 14 464 0
2018-10-21 18:07:35 GMT 38.074081 0.333797 36,025 14 465 0
2018-10-21 18:07:25 GMT 38.053070 0.326902 36,000 14 465 64
2018-10-21 18:07:14 GMT 38.031372 0.319831 36,000 14 466 0
2018-10-21 18:07:04 GMT 38.007568 0.312000 36,000 14 467 0
2018-10-21 18:06:54 GMT 37.987835 0.305587 35,975 14 465 320
2018-10-21 18:06:44 GMT 37.967400 0.298900 35,900 14 465 576
2018-10-21 18:06:39 GMT 37.956528 0.295345 35,850 14 465 576
2018-10-21 18:06:32 GMT 37.943756 0.291138 35,800 14 465 640
2018-10-21 18:06:26 GMT 37.929134 0.286361 35,725 14 465 768
2018-10-21 18:06:23 GMT 37.924164 0.284710 35,675 14 466 768
2018-10-21 18:06:13 GMT 37.902100 0.277522 35,550 14 466 832
2018-10-21 18:06:03 GMT 37.881088 0.270684 35,400 14 467 896
2018-10-21 18:05:53 GMT 37.860443 0.263906 35,275 14 468 704
2018-10-21 18:05:43 GMT 37.838356 0.256746 35,150 14 469 832
2018-10-21 18:05:32 GMT 37.816570 0.249700 35,000 14 469 768
2018-10-21 18:05:22 GMT 37.795296 0.242774 34,875 14 469 384
2018-10-21 18:05:11 GMT 37.773369 0.235669 34,825 14 468 320
2018-10-21 18:05:01 GMT 37.751678 0.228609 34,775 14 466 448
2018-10-21 18:04:51 GMT 37.730118 0.221655 34,675 14 466 576
2018-10-21 18:04:40 GMT 37.707779 0.214413 34,550 14 465 832
2018-10-21 18:04:30 GMT 37.687202 0.207725 34,425 14 465 576
2018-10-21 18:04:20 GMT 37.665741 0.200859 34,375 14 464 320
2018-10-21 18:04:10 GMT 37.645073 0.194171 34,300 14 463 576
2018-10-21 18:04:00 GMT 37.623425 0.187186 34,225 14 461 128
2018-10-21 18:03:50 GMT 37.602383 0.180379 34,200 14 459 512
2018-10-21 18:03:39 GMT 37.581249 0.173512 34,075 14 459 960
2018-10-21 18:03:29 GMT 37.559555 0.166548 33,900 14 460 960
2018-10-21 18:03:19 GMT 37.537678 0.159481 33,750 14 460 576
2018-10-21 18:03:08 GMT 37.516869 0.152734 33,675 14 459 576
2018-10-21 18:02:58 GMT 37.495548 0.145867 33,550 14 459 1088
2018-10-21 18:02:47 GMT 37.474506 0.139061 33,350 14 460 832
2018-10-21 18:02:37 GMT 37.453835 0.132433 33,275 14 459 320
2018-10-21 18:02:27 GMT 37.432571 0.125642 33,175 14 457 768
2018-10-21 18:02:17 GMT 37.411652 0.118921 33,050 14 457 832
2018-10-21 18:02:06 GMT 37.390137 0.111967 32,875 14 457 1344
2018-10-21 18:01:57 GMT 37.368412 0.104967 32,625 14 459 1472
2018-10-21 18:01:46 GMT 37.348766 0.098638 32,375 14 462 1408
2018-10-21 18:01:35 GMT 37.326141 0.091413 32,150 14 463 1088
2018-10-21 18:01:25 GMT 37.303116 0.084034 31,975 14 464 896
2018-10-21 18:01:15 GMT 37.283890 0.077839 31,850 14 463 768
2018-10-21 18:01:05 GMT 37.262009 0.070827 31,700 14 462 1216
2018-10-21 18:00:55 GMT 37.241226 0.064165 31,475 14 464 1472
2018-10-21 18:00:45 GMT 37.219620 0.057269 31,225 14 466 1024
2018-10-21 18:00:34 GMT 37.197239 0.050155 31,075 14 466 640
2018-10-21 18:00:23 GMT 37.175766 0.043302 30,975 14 464 704
2018-10-21 18:00:13 GMT 37.155251 0.036780 30,850 14 463 896
2018-10-21 18:00:03 GMT 37.133930 0.030033 30,650 14 463 1728
2018-10-21 17:59:53 GMT 37.112045 0.023083 30,300 14 467 2752
2018-10-21 17:59:42 GMT 37.089935 0.016002 29,850 14 473 2176
2018-10-21 17:59:32 GMT 37.067127 0.008717 29,550 14 476 1280
2018-10-21 17:59:22 GMT 37.046177 0.002030 29,375 14 477 640
2018-10-21 17:59:12 GMT 37.024902 -0.004777 29,250 14 475 576
2018-10-21 17:59:02 GMT 37.003490 -0.011285 29,175 11 470 448
2018-10-21 17:58:51 GMT 36.979706 -0.016830 29,100 8 466 512
2018-10-21 17:58:41 GMT 36.958603 -0.020161 29,000 5 461 640
2018-10-21 17:58:31 GMT 36.936951 -0.022090 28,875 2 457 896
2018-10-21 17:58:20 GMT 36.914619 -0.022749 28,700 0 455 1344
2018-10-21 17:58:10 GMT 36.893997 -0.022868 28,475 0 456 1472
2018-10-21 17:58:00 GMT 36.872406 -0.023200 28,275 1 457 768
2018-10-21 17:57:49 GMT 36.849060 -0.024433 28,075 3 456 1152
2018-10-21 17:57:39 GMT 36.827911 -0.025806 27,900 3 456 1280
2018-10-21 17:57:29 GMT 36.806717 -0.027294 27,650 3 457 1536
2018-10-21 17:57:18 GMT 36.783623 -0.028868 27,400 3 457 1280
2018-10-21 17:57:09 GMT 36.763641 -0.030212 27,200 3 457 1152
2018-10-21 17:56:59 GMT 36.741772 -0.031673 27,025 3 456 896
2018-10-21 17:56:47 GMT 36.718681 -0.033251 26,875 3 454 896
2018-10-21 17:56:37 GMT 36.697639 -0.034712 26,700 3 452 1216
2018-10-21 17:56:27 GMT 36.676971 -0.036115 26,500 3 451 1152
2018-10-21 17:56:17 GMT 36.654602 -0.037594 26,300 3 450 1152
2018-10-21 17:56:06 GMT 36.633224 -0.039024 26,100 3 448 1088
2018-10-21 17:55:57 GMT 36.612808 -0.040398 25,925 3 447 960
2018-10-21 17:55:46 GMT 36.591614 -0.041828 25,775 2 444 1024
2018-10-21 17:55:36 GMT 36.571152 -0.043144 25,600 3 442 1152
2018-10-21 17:55:25 GMT 36.548676 -0.044705 25,375 3 441 1344
2018-10-21 17:55:15 GMT 36.526840 -0.046234 25,150 3 440 1344
2018-10-21 17:55:06 GMT 36.506927 -0.047607 24,925 3 439 1344
2018-10-21 17:54:55 GMT 36.486740 -0.048981 24,700 3 439 1600
2018-10-21 17:54:44 GMT 36.464043 -0.050607 24,400 3 438 1664
2018-10-21 17:54:34 GMT 36.444717 -0.051956 24,150 3 438 1536
2018-10-21 17:54:24 GMT 36.423679 -0.053471 23,900 3 437 1472
2018-10-21 17:54:14 GMT 36.403057 -0.054990 23,650 3 436 1216
2018-10-21 17:54:03 GMT 36.381683 -0.056534 23,450 3 434 1152
2018-10-21 17:53:53 GMT 36.362045 -0.057970 23,225 3 432 2048
2018-10-21 17:53:44 GMT 36.341629 -0.059910 22,875 8 437 1920
2018-10-21 17:53:33 GMT 36.321533 -0.065346 22,575 18 443 1472
2018-10-21 17:53:22 GMT 36.300598 -0.075911 22,300 26 446 1472
2018-10-21 17:53:12 GMT 36.282673 -0.088884 22,100 33 447 1088
2018-10-21 17:53:01 GMT 36.263855 -0.104141 21,900 33 443 1024
2018-10-21 17:52:52 GMT 36.247665 -0.117226 21,750 33 439 1344
2018-10-21 17:52:41 GMT 36.230068 -0.131427 21,500 33 437 1472
2018-10-21 17:52:31 GMT 36.213032 -0.145277 21,250 33 436 1536
2018-10-21 17:52:22 GMT 36.194687 -0.160217 20,950 33 434 1728
2018-10-21 17:52:11 GMT 36.178116 -0.173721 20,700 33 432 1600
2018-10-21 17:52:01 GMT 36.161591 -0.187168 20,450 33 430 1280
2018-10-21 17:51:50 GMT 36.143112 -0.202078 20,250 33 425 1152

Making use of Plane Finder data

You are free to use the raw flight data, aircraft information and images provided in this report for your own purposes provided the data is correctly attributed to Plane Finder. We ask that you please credit Plane Finder and link to planefinder.net in close proximity to the content.

Optionally one of the following logos (no smaller then 150x24px) can be used and must link to planefinder.net

Embedding the Plane Finder map

You are welcome to embed the Plane Finder playback map on your website to offer visitors a more interactive experience. We suggest using the following HTML code:

<iframe src="//planefinder.net/data/report/AAF264-F-HBIO-7700-squawk-2018-10-21/map" width="800" height="600" seamless="seamless"></iframe>

Where our data comes from

Plane Finder has a global network of data feeds and antenna radars that receive data broadcast directly from aircraft. The primary technologies used are ADS-B and MLAT. We also show feeds from the FAA and a FLARM glider feed.

Click here to find out more about the Plane Finder network.

How we collect our data